DLH456 KSFO-EDDF
Flight info
| Callsign | DLH456 |
|---|---|
| Flight time | 10h 2m |
| Altitude | 35000 |
| Route | SNTNA2 ORRCA DCT FMG DCT BOI/N0475F370 DCT GTF DCT 50N108W DCT ITREK DCT 55N100W DCT YGX DCT 58N085W 60N074W/N0487F390 DCT GRIBS/M083F390 DCT MAXAR DCT 61N050W 61N040W 60N030W 60N020W DCT GOMUP/N0478F390 DCT GINGA/N0484F410 DCT TLA DCT ERKIT N110 DOLAS DCT NAVPI DCT SOGPO DCT DIXAT DIXAT1A |
| Aircraft | B748/H-SADE2E3GHIJ3J4J5M1P2RWXYZ/LB1D1 |
Departure
| Time | 2026-04-15 21:41 |
|---|---|
| Airport | San Francisco International Airport (KSFO) |
Arrival
| Time | 2026-04-16 07:44 |
|---|---|
| Airport | Frankfurt Main Airport (EDDF) |
| Time | Latitude | Longitude | Altitude | Speed | Heading |
|---|---|---|---|---|---|
| 2026-04-15 20:59 | 37.61832 | -122.39396 | 32 ft | 0 kts | 88° |
| 2026-04-15 21:26 | 37.61831 | -122.39411 | 32 ft | 3 kts | 88° |
| 2026-04-15 21:27 | 37.61831 | -122.39441 | 32 ft | 3 kts | 88° |
| 2026-04-15 21:27 | 37.61828 | -122.39467 | 31 ft | 3 kts | 65° |
| 2026-04-15 21:27 | 37.61815 | -122.39487 | 32 ft | 3 kts | 18° |
| 2026-04-15 21:27 | 37.61794 | -122.39490 | 32 ft | 3 kts | 341° |
| 2026-04-15 21:28 | 37.61776 | -122.39476 | 32 ft | 3 kts | 300° |
| 2026-04-15 21:28 | 37.61767 | -122.39455 | 32 ft | 3 kts | 298° |
| 2026-04-15 21:28 | 37.61755 | -122.39428 | 32 ft | 3 kts | 298° |
| 2026-04-15 21:28 | 37.61747 | -122.39408 | 32 ft | 0 kts | 298° |
| 2026-04-15 21:32 | 37.61759 | -122.39437 | 32 ft | 4 kts | 297° |
| 2026-04-15 21:32 | 37.61776 | -122.39475 | 32 ft | 6 kts | 304° |
| 2026-04-15 21:32 | 37.61806 | -122.39508 | 32 ft | 6 kts | 330° |
| 2026-04-15 21:32 | 37.61846 | -122.39523 | 32 ft | 7 kts | 346° |
| 2026-04-15 21:33 | 37.61898 | -122.39537 | 32 ft | 8 kts | 352° |
| 2026-04-15 21:33 | 37.61946 | -122.39521 | 32 ft | 7 kts | 32° |
| 2026-04-15 21:33 | 37.61970 | -122.39476 | 32 ft | 6 kts | 68° |
| 2026-04-15 21:33 | 37.61989 | -122.39416 | 32 ft | 9 kts | 68° |
| 2026-04-15 21:34 | 37.62018 | -122.39355 | 32 ft | 7 kts | 38° |
| 2026-04-15 21:34 | 37.62067 | -122.39318 | 32 ft | 9 kts | 28° |
| 2026-04-15 21:34 | 37.62130 | -122.39276 | 32 ft | 11 kts | 27° |
| 2026-04-15 21:34 | 37.62206 | -122.39228 | 30 ft | 13 kts | 27° |
| 2026-04-15 21:35 | 37.62283 | -122.39159 | 32 ft | 14 kts | 46° |
| 2026-04-15 21:35 | 37.62323 | -122.39045 | 32 ft | 15 kts | 85° |
| 2026-04-15 21:35 | 37.62278 | -122.38943 | 32 ft | 14 kts | 127° |
| 2026-04-15 21:35 | 37.62229 | -122.38828 | 32 ft | 16 kts | 117° |
| 2026-04-15 21:36 | 37.62174 | -122.38698 | 32 ft | 18 kts | 118° |
| 2026-04-15 21:36 | 37.62112 | -122.38553 | 32 ft | 20 kts | 118° |
| 2026-04-15 21:36 | 37.62044 | -122.38392 | 32 ft | 22 kts | 118° |
| 2026-04-15 21:36 | 37.61969 | -122.38217 | 32 ft | 24 kts | 118° |
| 2026-04-15 21:37 | 37.61892 | -122.38026 | 32 ft | 25 kts | 117° |
| 2026-04-15 21:37 | 37.61811 | -122.37822 | 32 ft | 26 kts | 110° |
| 2026-04-15 21:37 | 37.61749 | -122.37604 | 32 ft | 27 kts | 109° |
| 2026-04-15 21:37 | 37.61667 | -122.37385 | 32 ft | 28 kts | 118° |
| 2026-04-15 21:38 | 37.61573 | -122.37157 | 32 ft | 30 kts | 117° |
| 2026-04-15 21:38 | 37.61468 | -122.36923 | 32 ft | 31 kts | 129° |
| 2026-04-15 21:38 | 37.61334 | -122.36705 | 32 ft | 32 kts | 116° |
| 2026-04-15 21:38 | 37.61231 | -122.36455 | 30 ft | 32 kts | 117° |
| 2026-04-15 21:39 | 37.61128 | -122.36215 | 32 ft | 31 kts | 119° |
| 2026-04-15 21:39 | 37.61053 | -122.35987 | 32 ft | 24 kts | 84° |
| 2026-04-15 21:39 | 37.61154 | -122.35875 | 32 ft | 12 kts | 15° |
| 2026-04-15 21:39 | 37.61198 | -122.35908 | 32 ft | 6 kts | 301° |
| 2026-04-15 21:40 | 37.61217 | -122.35951 | 32 ft | 6 kts | 298° |
| 2026-04-15 21:40 | 37.61273 | -122.36082 | 32 ft | 42 kts | 298° |
| 2026-04-15 21:40 | 37.61514 | -122.36655 | 32 ft | 103 kts | 298° |
| 2026-04-15 21:40 | 37.61927 | -122.37638 | 34 ft | 148 kts | 300° |
| 2026-04-15 21:41 | 37.62476 | -122.38866 | 326 ft | 165 kts | 296° |
| 2026-04-15 21:41 | 37.63070 | -122.40216 | 642 ft | 187 kts | 300° |
| 2026-04-15 21:41 | 37.63702 | -122.41700 | 1146 ft | 195 kts | 296° |
| 2026-04-15 21:41 | 37.64331 | -122.43229 | 1713 ft | 201 kts | 298° |
| 2026-04-15 21:42 | 37.65003 | -122.44829 | 2070 ft | 213 kts | 298° |
| 2026-04-15 21:42 | 37.65740 | -122.46522 | 2327 ft | 227 kts | 298° |
| 2026-04-15 21:42 | 37.66517 | -122.48293 | 2676 ft | 236 kts | 298° |
| 2026-04-15 21:42 | 37.67311 | -122.50145 | 3192 ft | 245 kts | 299° |
| 2026-04-15 21:43 | 37.68476 | -122.51767 | 3891 ft | 258 kts | 328° |
| 2026-04-15 21:43 | 37.70190 | -122.52478 | 4730 ft | 265 kts | 354° |
| 2026-04-15 21:43 | 37.72050 | -122.52582 | 5554 ft | 270 kts | 358° |
| 2026-04-15 21:43 | 37.73954 | -122.52596 | 6375 ft | 276 kts | 357° |
| 2026-04-15 21:44 | 37.75859 | -122.52658 | 7169 ft | 279 kts | 357° |
| 2026-04-15 21:44 | 37.77840 | -122.52730 | 7944 ft | 283 kts | 1° |
| 2026-04-15 21:44 | 37.79726 | -122.52133 | 8663 ft | 289 kts | 28° |
| 2026-04-15 21:44 | 37.81254 | -122.50474 | 9392 ft | 295 kts | 55° |
| 2026-04-15 21:45 | 37.82217 | -122.48165 | 10086 ft | 300 kts | 66° |
| 2026-04-15 21:45 | 37.83012 | -122.45682 | 10618 ft | 311 kts | 67° |
| 2026-04-15 21:45 | 37.83955 | -122.43162 | 11011 ft | 324 kts | 52° |
| 2026-04-15 21:45 | 37.85414 | -122.40910 | 11346 ft | 339 kts | 46° |
| 2026-04-15 21:46 | 37.87058 | -122.38694 | 11811 ft | 351 kts | 45° |
| 2026-04-15 21:46 | 37.88724 | -122.36385 | 12390 ft | 359 kts | 46° |
| 2026-04-15 21:46 | 37.90365 | -122.33967 | 13014 ft | 365 kts | 48° |
| 2026-04-15 21:46 | 37.92033 | -122.31516 | 13647 ft | 370 kts | 46° |
| 2026-04-15 21:47 | 37.93749 | -122.29062 | 14284 ft | 375 kts | 46° |
| 2026-04-15 21:47 | 37.95485 | -122.26567 | 14891 ft | 379 kts | 46° |
| 2026-04-15 21:47 | 37.97234 | -122.24038 | 15493 ft | 383 kts | 48° |
| 2026-04-15 21:47 | 37.98987 | -122.21487 | 16046 ft | 385 kts | 46° |
| 2026-04-15 21:48 | 38.00768 | -122.18919 | 16600 ft | 390 kts | 45° |
| 2026-04-15 21:48 | 38.02581 | -122.16325 | 17176 ft | 395 kts | 46° |
| 2026-04-15 21:48 | 38.04394 | -122.13671 | 17749 ft | 400 kts | 46° |
| 2026-04-15 21:48 | 38.06231 | -122.10980 | 18334 ft | 406 kts | 46° |
| 2026-04-15 21:49 | 38.08104 | -122.08271 | 18924 ft | 409 kts | 45° |
| 2026-04-15 21:49 | 38.10010 | -122.05543 | 19531 ft | 415 kts | 46° |
| 2026-04-15 21:49 | 38.11927 | -122.02779 | 20105 ft | 418 kts | 46° |
| 2026-04-15 21:49 | 38.13824 | -121.99963 | 20688 ft | 422 kts | 47° |
| 2026-04-15 21:50 | 38.15743 | -121.97138 | 21221 ft | 423 kts | 46° |
| 2026-04-15 21:50 | 38.17694 | -121.94320 | 21724 ft | 426 kts | 46° |
| 2026-04-15 21:50 | 38.19654 | -121.91472 | 22198 ft | 429 kts | 47° |
| 2026-04-15 21:50 | 38.21614 | -121.88601 | 22683 ft | 432 kts | 46° |
| 2026-04-15 21:51 | 38.23587 | -121.85699 | 23124 ft | 435 kts | 46° |
| 2026-04-15 21:51 | 38.25582 | -121.82782 | 23558 ft | 438 kts | 46° |
| 2026-04-15 21:51 | 38.27592 | -121.79853 | 23974 ft | 441 kts | 46° |
| 2026-04-15 21:51 | 38.29608 | -121.76892 | 24384 ft | 444 kts | 46° |
| 2026-04-15 21:52 | 38.31632 | -121.73913 | 24780 ft | 447 kts | 46° |
| 2026-04-15 21:52 | 38.33677 | -121.70913 | 25153 ft | 449 kts | 46° |
| 2026-04-15 21:52 | 38.35732 | -121.67896 | 25527 ft | 453 kts | 47° |
| 2026-04-15 21:52 | 38.37801 | -121.64848 | 25912 ft | 456 kts | 46° |
| 2026-04-15 21:53 | 38.39878 | -121.61786 | 26284 ft | 458 kts | 46° |
| 2026-04-15 21:53 | 38.41971 | -121.58697 | 26656 ft | 462 kts | 46° |
| 2026-04-15 21:53 | 38.44049 | -121.55634 | 27026 ft | 464 kts | 48° |
| 2026-04-15 21:53 | 38.46030 | -121.52358 | 27400 ft | 468 kts | 51° |
| 2026-04-15 21:54 | 38.47983 | -121.49027 | 27759 ft | 470 kts | 51° |
| 2026-04-15 21:54 | 38.49952 | -121.45687 | 28113 ft | 472 kts | 50° |
| 2026-04-15 21:54 | 38.51932 | -121.42334 | 28458 ft | 474 kts | 51° |
| 2026-04-15 21:54 | 38.53921 | -121.38955 | 28805 ft | 477 kts | 51° |
| 2026-04-15 21:55 | 38.55915 | -121.35557 | 29150 ft | 480 kts | 51° |
| 2026-04-15 21:55 | 38.57922 | -121.32137 | 29488 ft | 482 kts | 51° |
| 2026-04-15 21:55 | 38.59939 | -121.28699 | 29821 ft | 485 kts | 51° |
| 2026-04-15 21:55 | 38.61967 | -121.25237 | 30163 ft | 488 kts | 51° |
| 2026-04-15 21:56 | 38.64007 | -121.21753 | 30499 ft | 491 kts | 51° |
| 2026-04-15 21:56 | 38.66056 | -121.18245 | 30828 ft | 494 kts | 51° |
| 2026-04-15 21:56 | 38.68118 | -121.14708 | 31152 ft | 497 kts | 50° |
| 2026-04-15 21:56 | 38.70189 | -121.11159 | 31469 ft | 499 kts | 51° |
| 2026-04-15 21:57 | 38.72269 | -121.07590 | 31791 ft | 501 kts | 50° |
| 2026-04-15 21:57 | 38.74353 | -121.04009 | 32081 ft | 503 kts | 51° |
| 2026-04-15 21:57 | 38.76445 | -121.00408 | 32367 ft | 505 kts | 51° |
| 2026-04-15 21:57 | 38.78549 | -120.96781 | 32657 ft | 508 kts | 51° |
| 2026-04-15 21:58 | 38.80660 | -120.93143 | 32942 ft | 510 kts | 51° |
| 2026-04-15 21:58 | 38.82779 | -120.89473 | 33228 ft | 513 kts | 51° |
| 2026-04-15 21:58 | 38.84913 | -120.85791 | 33504 ft | 516 kts | 51° |
| 2026-04-15 21:58 | 38.87062 | -120.82085 | 33763 ft | 518 kts | 51° |
| 2026-04-15 21:59 | 38.89210 | -120.78361 | 34030 ft | 520 kts | 51° |
| 2026-04-15 21:59 | 38.91363 | -120.74620 | 34283 ft | 522 kts | 51° |
| 2026-04-15 21:59 | 38.93527 | -120.70863 | 34528 ft | 524 kts | 51° |
| 2026-04-15 21:59 | 38.95701 | -120.67087 | 34757 ft | 526 kts | 51° |
| 2026-04-15 22:00 | 38.97883 | -120.63298 | 34992 ft | 528 kts | 51° |
| 2026-04-15 22:00 | 39.00063 | -120.59497 | 35150 ft | 529 kts | 52° |
| 2026-04-15 22:00 | 39.02245 | -120.55681 | 35143 ft | 528 kts | 51° |
| 2026-04-15 22:01 | 39.06585 | -120.48103 | 35137 ft | 525 kts | 51° |
| 2026-04-15 22:01 | 39.10924 | -120.40506 | 35148 ft | 527 kts | 51° |
| 2026-04-15 22:02 | 39.15262 | -120.32879 | 35140 ft | 528 kts | 51° |
| 2026-04-15 22:02 | 39.19596 | -120.25257 | 35141 ft | 527 kts | 51° |
| 2026-04-15 22:03 | 39.23894 | -120.17668 | 35142 ft | 528 kts | 51° |
| 2026-04-15 22:03 | 39.28225 | -120.10016 | 35123 ft | 528 kts | 51° |
| 2026-04-15 22:04 | 39.31845 | -120.03592 | 35124 ft | 528 kts | 51° |
| 2026-04-15 22:04 | 39.36170 | -119.95914 | 35105 ft | 529 kts | 52° |
| 2026-04-15 22:05 | 39.40493 | -119.88213 | 35080 ft | 529 kts | 52° |
| 2026-04-15 22:05 | 39.44815 | -119.80507 | 35059 ft | 530 kts | 52° |
| 2026-04-15 22:06 | 39.49130 | -119.72776 | 35050 ft | 529 kts | 52° |
| 2026-04-15 22:06 | 39.53559 | -119.65196 | 35070 ft | 525 kts | 43° |
| 2026-04-15 22:06 | 39.56290 | -119.62091 | 35073 ft | 521 kts | 31° |
| 2026-04-15 22:07 | 39.59353 | -119.59634 | 35054 ft | 517 kts | 24° |
| 2026-04-15 22:07 | 39.65719 | -119.55516 | 35055 ft | 514 kts | 23° |
| 2026-04-15 22:08 | 39.71889 | -119.50721 | 35023 ft | 520 kts | 31° |
| 2026-04-15 22:08 | 39.77922 | -119.45575 | 35033 ft | 518 kts | 27° |
| 2026-04-15 22:09 | 39.84106 | -119.40775 | 35019 ft | 519 kts | 29° |
| 2026-04-15 22:09 | 39.90193 | -119.35720 | 35026 ft | 519 kts | 28° |
| 2026-04-15 22:10 | 39.96349 | -119.30803 | 35019 ft | 519 kts | 28° |
| 2026-04-15 22:10 | 40.02458 | -119.25795 | 35010 ft | 519 kts | 28° |
| 2026-04-15 22:11 | 40.08622 | -119.20802 | 35005 ft | 522 kts | 28° |
| 2026-04-15 22:11 | 40.14781 | -119.15749 | 34995 ft | 523 kts | 28° |
| 2026-04-15 22:12 | 40.20962 | -119.10710 | 34981 ft | 525 kts | 28° |
| 2026-04-15 22:12 | 40.27141 | -119.05635 | 34983 ft | 524 kts | 28° |
| 2026-04-15 22:13 | 40.33334 | -119.00553 | 34985 ft | 526 kts | 28° |
| 2026-04-15 22:13 | 40.39536 | -118.95439 | 34973 ft | 526 kts | 28° |
| 2026-04-15 22:14 | 40.45739 | -118.90326 | 34974 ft | 527 kts | 28° |
| 2026-04-15 22:14 | 40.51946 | -118.85189 | 34975 ft | 528 kts | 28° |
| 2026-04-15 22:15 | 40.58155 | -118.80042 | 34978 ft | 527 kts | 29° |
| 2026-04-15 22:15 | 40.64330 | -118.74915 | 34975 ft | 528 kts | 28° |
| 2026-04-15 22:16 | 40.70545 | -118.69732 | 34976 ft | 529 kts | 28° |
| 2026-04-15 22:16 | 40.76771 | -118.64544 | 34966 ft | 530 kts | 28° |
| 2026-04-15 22:17 | 40.82994 | -118.59329 | 34967 ft | 531 kts | 28° |
| 2026-04-15 22:17 | 40.89229 | -118.54113 | 34962 ft | 532 kts | 29° |
| 2026-04-15 22:18 | 40.95481 | -118.48848 | 34949 ft | 533 kts | 28° |
| 2026-04-15 22:18 | 41.01740 | -118.43578 | 34949 ft | 534 kts | 28° |
| 2026-04-15 22:19 | 41.08019 | -118.38286 | 34951 ft | 536 kts | 29° |
| 2026-04-15 22:19 | 41.14298 | -118.32966 | 34955 ft | 536 kts | 28° |
| 2026-04-15 22:20 | 41.20594 | -118.27632 | 34952 ft | 537 kts | 28° |
| 2026-04-15 22:20 | 41.26896 | -118.22273 | 34956 ft | 538 kts | 28° |
| 2026-04-15 22:21 | 41.33208 | -118.16896 | 34932 ft | 539 kts | 28° |
| 2026-04-15 22:21 | 41.39533 | -118.11496 | 34931 ft | 540 kts | 28° |
| 2026-04-15 22:22 | 41.45815 | -118.06119 | 34932 ft | 541 kts | 28° |
| 2026-04-15 22:22 | 41.52157 | -118.00678 | 34926 ft | 543 kts | 28° |
| 2026-04-15 22:23 | 41.58512 | -117.95215 | 34924 ft | 544 kts | 28° |
| 2026-04-15 22:23 | 41.64876 | -117.89733 | 34912 ft | 544 kts | 28° |
| 2026-04-15 22:24 | 41.71238 | -117.84225 | 34914 ft | 545 kts | 28° |
| 2026-04-15 22:24 | 41.77605 | -117.78716 | 34903 ft | 544 kts | 28° |
| 2026-04-15 22:25 | 41.83964 | -117.73188 | 34904 ft | 545 kts | 29° |
| 2026-04-15 22:25 | 41.90335 | -117.67651 | 34896 ft | 545 kts | 29° |
| 2026-04-15 22:26 | 41.96694 | -117.62100 | 34892 ft | 545 kts | 29° |
| 2026-04-15 22:26 | 42.03051 | -117.56546 | 34874 ft | 545 kts | 29° |
| 2026-04-15 22:27 | 42.09433 | -117.50945 | 34873 ft | 548 kts | 29° |
| 2026-04-15 22:27 | 42.15817 | -117.45334 | 34867 ft | 549 kts | 29° |
| 2026-04-15 22:28 | 42.22217 | -117.39700 | 34869 ft | 549 kts | 29° |
| 2026-04-15 22:28 | 42.28595 | -117.34060 | 34865 ft | 549 kts | 28° |
| 2026-04-15 22:29 | 42.34991 | -117.28412 | 34867 ft | 551 kts | 29° |
| 2026-04-15 22:29 | 42.41375 | -117.22731 | 34868 ft | 549 kts | 29° |
| 2026-04-15 22:30 | 42.47770 | -117.17053 | 34864 ft | 550 kts | 29° |
| 2026-04-15 22:30 | 42.54166 | -117.11337 | 34862 ft | 550 kts | 29° |
| 2026-04-15 22:31 | 42.60576 | -117.05615 | 34865 ft | 552 kts | 29° |
| 2026-04-15 22:31 | 42.66935 | -116.99907 | 34853 ft | 551 kts | 29° |
| 2026-04-15 22:32 | 42.73342 | -116.94157 | 34850 ft | 553 kts | 29° |
| 2026-04-15 22:32 | 42.79753 | -116.88375 | 34848 ft | 553 kts | 29° |
| 2026-04-15 22:33 | 42.86177 | -116.82579 | 34835 ft | 554 kts | 29° |
| 2026-04-15 22:33 | 42.92603 | -116.76756 | 34839 ft | 555 kts | 29° |
| 2026-04-15 22:34 | 42.99032 | -116.70923 | 34812 ft | 556 kts | 29° |
| 2026-04-15 22:34 | 43.05467 | -116.65065 | 34827 ft | 557 kts | 29° |
| 2026-04-15 22:35 | 43.11914 | -116.59188 | 34821 ft | 557 kts | 29° |
| 2026-04-15 22:35 | 43.18367 | -116.53276 | 34814 ft | 558 kts | 30° |
| 2026-04-15 22:36 | 43.24830 | -116.47364 | 34815 ft | 559 kts | 29° |
| 2026-04-15 22:36 | 43.31301 | -116.41397 | 34829 ft | 561 kts | 30° |
| 2026-04-15 22:37 | 43.37790 | -116.35413 | 34830 ft | 562 kts | 29° |
| 2026-04-15 22:37 | 43.44285 | -116.29417 | 34822 ft | 563 kts | 29° |
| 2026-04-15 22:38 | 43.50786 | -116.23391 | 34834 ft | 564 kts | 30° |
| 2026-04-15 22:38 | 43.57200 | -116.17116 | 34846 ft | 568 kts | 35° |
| 2026-04-15 22:39 | 43.63328 | -116.10185 | 34841 ft | 570 kts | 36° |
| 2026-04-15 22:39 | 43.69491 | -116.03305 | 34840 ft | 570 kts | 35° |
| 2026-04-15 22:40 | 43.75627 | -115.96377 | 34838 ft | 570 kts | 36° |
| 2026-04-15 22:40 | 43.81775 | -115.89437 | 34838 ft | 570 kts | 35° |
| 2026-04-15 22:41 | 43.90980 | -115.78998 | 34841 ft | 570 kts | 35° |
| 2026-04-15 22:41 | 43.97124 | -115.72035 | 34843 ft | 571 kts | 36° |
| 2026-04-15 22:42 | 44.03211 | -115.65081 | 34840 ft | 571 kts | 36° |
| 2026-04-15 22:42 | 44.09398 | -115.58014 | 34837 ft | 571 kts | 36° |
| 2026-04-15 22:43 | 44.15499 | -115.51023 | 34833 ft | 572 kts | 36° |
| 2026-04-15 22:43 | 44.21667 | -115.43931 | 34817 ft | 571 kts | 36° |
| 2026-04-15 22:44 | 44.27739 | -115.36934 | 34808 ft | 570 kts | 36° |
| 2026-04-15 22:44 | 44.33850 | -115.29871 | 34816 ft | 570 kts | 36° |
| 2026-04-15 22:45 | 44.39953 | -115.22790 | 34812 ft | 570 kts | 36° |
| 2026-04-15 22:45 | 44.46055 | -115.15698 | 34810 ft | 571 kts | 36° |
| 2026-04-15 22:46 | 44.52153 | -115.08595 | 34809 ft | 570 kts | 36° |
| 2026-04-15 22:46 | 44.58249 | -115.01477 | 34824 ft | 570 kts | 36° |
| 2026-04-15 22:47 | 44.64334 | -114.94331 | 34807 ft | 571 kts | 36° |
| 2026-04-15 22:47 | 44.70429 | -114.87177 | 34782 ft | 572 kts | 36° |
| 2026-04-15 22:48 | 44.76509 | -114.79999 | 34777 ft | 570 kts | 36° |
| 2026-04-15 22:48 | 44.82591 | -114.72817 | 34777 ft | 571 kts | 36° |
| 2026-04-15 22:49 | 44.88666 | -114.65605 | 34762 ft | 571 kts | 37° |
| 2026-04-15 22:49 | 44.94733 | -114.58390 | 34760 ft | 571 kts | 37° |
| 2026-04-15 22:50 | 45.00764 | -114.51209 | 34753 ft | 570 kts | 37° |
| 2026-04-15 22:50 | 45.06822 | -114.43960 | 34748 ft | 571 kts | 37° |
| 2026-04-15 22:51 | 45.12886 | -114.36684 | 34740 ft | 574 kts | 37° |
| 2026-04-15 22:51 | 45.18964 | -114.29384 | 34716 ft | 572 kts | 37° |
| 2026-04-15 22:52 | 45.25035 | -114.22053 | 34718 ft | 574 kts | 37° |
| 2026-04-15 22:52 | 45.30083 | -114.15947 | 34720 ft | 574 kts | 37° |
| 2026-04-15 22:53 | 45.36175 | -114.08564 | 34722 ft | 575 kts | 37° |
| 2026-04-15 22:53 | 45.42258 | -114.01164 | 34713 ft | 576 kts | 38° |
| 2026-04-15 22:54 | 45.48339 | -113.93745 | 34706 ft | 574 kts | 37° |
| 2026-04-15 22:54 | 45.54393 | -113.86339 | 34705 ft | 574 kts | 38° |
| 2026-04-15 22:55 | 45.60448 | -113.78906 | 34698 ft | 575 kts | 38° |
| 2026-04-15 22:55 | 45.66515 | -113.71442 | 34697 ft | 576 kts | 38° |
| 2026-04-15 22:56 | 45.72577 | -113.63955 | 34688 ft | 576 kts | 38° |
| 2026-04-15 22:56 | 45.78637 | -113.56451 | 34690 ft | 576 kts | 38° |
| 2026-04-15 22:57 | 45.84695 | -113.48935 | 34694 ft | 575 kts | 38° |
| 2026-04-15 22:57 | 45.90726 | -113.41419 | 34693 ft | 574 kts | 38° |
| 2026-04-15 22:58 | 45.96709 | -113.33944 | 34693 ft | 574 kts | 38° |
| 2026-04-15 22:58 | 46.02727 | -113.26413 | 34690 ft | 574 kts | 38° |
| 2026-04-15 22:59 | 46.08762 | -113.18821 | 34691 ft | 577 kts | 38° |
| 2026-04-15 22:59 | 46.14801 | -113.11211 | 34693 ft | 577 kts | 38° |
| 2026-04-15 23:00 | 46.20827 | -113.03594 | 34695 ft | 576 kts | 38° |
| 2026-04-15 23:00 | 46.26837 | -112.95970 | 34687 ft | 573 kts | 38° |
| 2026-04-15 23:01 | 46.32830 | -112.88347 | 34689 ft | 574 kts | 38° |
| 2026-04-15 23:01 | 46.38820 | -112.80710 | 34686 ft | 574 kts | 38° |
| 2026-04-15 23:02 | 46.44811 | -112.73028 | 34677 ft | 574 kts | 38° |
| 2026-04-15 23:02 | 46.50801 | -112.65361 | 34682 ft | 575 kts | 38° |
| 2026-04-15 23:03 | 46.56765 | -112.57658 | 34673 ft | 573 kts | 38° |
| 2026-04-15 23:03 | 46.62742 | -112.49955 | 34658 ft | 574 kts | 38° |
| 2026-04-15 23:04 | 46.68702 | -112.42214 | 34655 ft | 573 kts | 38° |
| 2026-04-15 23:04 | 46.74664 | -112.34481 | 34640 ft | 574 kts | 38° |
| 2026-04-15 23:05 | 46.80616 | -112.26710 | 34641 ft | 574 kts | 38° |
| 2026-04-15 23:05 | 46.86571 | -112.18941 | 34634 ft | 574 kts | 38° |
| 2026-04-15 23:06 | 46.92479 | -112.11184 | 34634 ft | 575 kts | 38° |
| 2026-04-15 23:06 | 46.98425 | -112.03355 | 34634 ft | 574 kts | 38° |
| 2026-04-15 23:07 | 47.04373 | -111.95507 | 34637 ft | 574 kts | 38° |
| 2026-04-15 23:07 | 47.10295 | -111.87675 | 34635 ft | 574 kts | 38° |
| 2026-04-15 23:08 | 47.16216 | -111.79800 | 34635 ft | 574 kts | 38° |
| 2026-04-15 23:08 | 47.22151 | -111.71912 | 34637 ft | 576 kts | 38° |
| 2026-04-15 23:09 | 47.28071 | -111.63987 | 34624 ft | 575 kts | 39° |
| 2026-04-15 23:09 | 47.33980 | -111.56057 | 34622 ft | 574 kts | 39° |
| 2026-04-15 23:10 | 47.39895 | -111.48112 | 34623 ft | 576 kts | 39° |
| 2026-04-15 23:10 | 47.45830 | -111.40173 | 34631 ft | 574 kts | 36° |
| 2026-04-15 23:11 | 47.51940 | -111.32549 | 34623 ft | 575 kts | 36° |
| 2026-04-15 23:11 | 47.58028 | -111.24884 | 34603 ft | 573 kts | 36° |
| 2026-04-15 23:12 | 47.64123 | -111.17247 | 34595 ft | 574 kts | 36° |
| 2026-04-15 23:12 | 47.70189 | -111.09557 | 34584 ft | 573 kts | 36° |
| 2026-04-15 23:13 | 47.76266 | -111.01888 | 34586 ft | 573 kts | 36° |
| 2026-04-15 23:13 | 47.82278 | -110.94231 | 34595 ft | 573 kts | 36° |
| 2026-04-15 23:14 | 47.88336 | -110.86527 | 34592 ft | 573 kts | 36° |
| 2026-04-15 23:14 | 47.94381 | -110.78786 | 34599 ft | 572 kts | 36° |
| 2026-04-15 23:15 | 48.00418 | -110.71053 | 34598 ft | 572 kts | 36° |
| 2026-04-15 23:15 | 48.06438 | -110.63301 | 34599 ft | 570 kts | 37° |
| 2026-04-15 23:16 | 48.12439 | -110.55553 | 34601 ft | 570 kts | 36° |
| 2026-04-15 23:16 | 48.18429 | -110.47795 | 34598 ft | 569 kts | 36° |
| 2026-04-15 23:17 | 48.24418 | -110.40015 | 34599 ft | 569 kts | 36° |
| 2026-04-15 23:17 | 48.30410 | -110.32227 | 34596 ft | 570 kts | 37° |
| 2026-04-15 23:18 | 48.36376 | -110.24387 | 34605 ft | 570 kts | 36° |
| 2026-04-15 23:18 | 48.42360 | -110.16563 | 34601 ft | 570 kts | 37° |
| 2026-04-15 23:19 | 48.48318 | -110.08687 | 34601 ft | 570 kts | 37° |
| 2026-04-15 23:19 | 48.54295 | -110.00834 | 34599 ft | 570 kts | 37° |
| 2026-04-15 23:20 | 48.60237 | -109.92937 | 34605 ft | 568 kts | 37° |
| 2026-04-15 23:20 | 48.66168 | -109.85069 | 34601 ft | 567 kts | 37° |
| 2026-04-15 23:21 | 48.72093 | -109.77166 | 34603 ft | 567 kts | 37° |
| 2026-04-15 23:21 | 48.78000 | -109.69255 | 34603 ft | 567 kts | 37° |
| 2026-04-15 23:22 | 48.83902 | -109.61344 | 34605 ft | 566 kts | 37° |
| 2026-04-15 23:22 | 48.89786 | -109.53415 | 34606 ft | 564 kts | 37° |
| 2026-04-15 23:23 | 48.95616 | -109.45548 | 34608 ft | 565 kts | 37° |
| 2026-04-15 23:23 | 49.01480 | -109.37593 | 34608 ft | 565 kts | 37° |
| 2026-04-15 23:24 | 49.07342 | -109.29629 | 34604 ft | 564 kts | 38° |
| 2026-04-15 23:24 | 49.13188 | -109.21640 | 34603 ft | 563 kts | 37° |
| 2026-04-15 23:25 | 49.19029 | -109.13654 | 34608 ft | 562 kts | 37° |
| 2026-04-15 23:25 | 49.24854 | -109.05650 | 34606 ft | 563 kts | 37° |
| 2026-04-15 23:26 | 49.30676 | -108.97631 | 34604 ft | 563 kts | 38° |
| 2026-04-15 23:26 | 49.36486 | -108.89598 | 34610 ft | 562 kts | 37° |
| 2026-04-15 23:27 | 49.42285 | -108.81548 | 34604 ft | 562 kts | 37° |
| 2026-04-15 23:27 | 49.48087 | -108.73479 | 34616 ft | 563 kts | 37° |
| 2026-04-15 23:28 | 49.53864 | -108.65409 | 34624 ft | 561 kts | 37° |
| 2026-04-15 23:28 | 49.59655 | -108.57301 | 34626 ft | 562 kts | 38° |
| 2026-04-15 23:29 | 49.65432 | -108.49177 | 34628 ft | 562 kts | 38° |
| 2026-04-15 23:29 | 49.71199 | -108.41041 | 34630 ft | 562 kts | 37° |
| 2026-04-15 23:30 | 49.76961 | -108.32883 | 34632 ft | 562 kts | 38° |
| 2026-04-15 23:30 | 49.82721 | -108.24712 | 34629 ft | 561 kts | 38° |
| 2026-04-15 23:31 | 49.88425 | -108.16588 | 34632 ft | 560 kts | 38° |
| 2026-04-15 23:31 | 49.94152 | -108.08386 | 34634 ft | 561 kts | 38° |
| 2026-04-15 23:32 | 49.99904 | -108.00217 | 34641 ft | 558 kts | 33° |
| 2026-04-15 23:32 | 50.06266 | -107.93490 | 34650 ft | 552 kts | 26° |
| 2026-04-15 23:33 | 50.12689 | -107.86897 | 34648 ft | 554 kts | 28° |
| 2026-04-15 23:33 | 50.19075 | -107.80177 | 34642 ft | 553 kts | 27° |
| 2026-04-15 23:34 | 50.25473 | -107.73551 | 34644 ft | 552 kts | 28° |
| 2026-04-15 23:36 | 50.46143 | -107.46048 | 34650 ft | 557 kts | 38° |
| 2026-04-15 23:36 | 50.51895 | -107.37843 | 34653 ft | 559 kts | 37° |
| 2026-04-15 23:37 | 50.57671 | -107.29689 | 34651 ft | 557 kts | 37° |
| 2026-04-15 23:37 | 50.63417 | -107.21499 | 34660 ft | 556 kts | 38° |
| 2026-04-15 23:38 | 50.69156 | -107.13292 | 34671 ft | 558 kts | 38° |
| 2026-04-15 23:38 | 50.74892 | -107.05073 | 34677 ft | 556 kts | 38° |
| 2026-04-15 23:39 | 50.80576 | -106.96895 | 34690 ft | 556 kts | 38° |
| 2026-04-15 23:39 | 50.86286 | -106.88655 | 34711 ft | 556 kts | 38° |
| 2026-04-15 23:40 | 50.91990 | -106.80381 | 34717 ft | 555 kts | 38° |
| 2026-04-15 23:40 | 50.97689 | -106.72118 | 34735 ft | 556 kts | 38° |
| 2026-04-15 23:41 | 51.03371 | -106.63828 | 34734 ft | 553 kts | 39° |
| 2026-04-15 23:41 | 51.09044 | -106.55516 | 34742 ft | 553 kts | 39° |
| 2026-04-15 23:42 | 51.14701 | -106.47211 | 34747 ft | 553 kts | 39° |
| 2026-04-15 23:42 | 51.20354 | -106.38861 | 34754 ft | 554 kts | 39° |
| 2026-04-15 23:43 | 51.25058 | -106.31921 | 34766 ft | 554 kts | 39° |
| 2026-04-15 23:43 | 51.30703 | -106.23547 | 34762 ft | 553 kts | 39° |
| 2026-04-15 23:44 | 51.36338 | -106.15163 | 34776 ft | 553 kts | 39° |
| 2026-04-15 23:44 | 51.41959 | -106.06759 | 34785 ft | 552 kts | 39° |
| 2026-04-15 23:45 | 51.47558 | -105.98357 | 34786 ft | 551 kts | 39° |
| 2026-04-15 23:45 | 51.53159 | -105.89949 | 34797 ft | 552 kts | 39° |
| 2026-04-15 23:46 | 51.58756 | -105.81484 | 34794 ft | 552 kts | 40° |
| 2026-04-15 23:46 | 51.64345 | -105.73021 | 34798 ft | 552 kts | 40° |
| 2026-04-15 23:47 | 51.69928 | -105.64527 | 34793 ft | 553 kts | 40° |
| 2026-04-15 23:47 | 51.75512 | -105.56008 | 34796 ft | 552 kts | 39° |
| 2026-04-15 23:48 | 51.81081 | -105.47475 | 34807 ft | 552 kts | 40° |
| 2026-04-15 23:48 | 51.86643 | -105.38932 | 34811 ft | 552 kts | 40° |
| 2026-04-15 23:49 | 51.92203 | -105.30344 | 34815 ft | 552 kts | 40° |
| 2026-04-15 23:49 | 51.97758 | -105.21748 | 34821 ft | 552 kts | 40° |
| 2026-04-15 23:50 | 52.03274 | -105.13192 | 34829 ft | 552 kts | 40° |
| 2026-04-15 23:50 | 52.08811 | -105.04548 | 34834 ft | 553 kts | 41° |
| 2026-04-15 23:51 | 52.17114 | -104.91546 | 34835 ft | 552 kts | 41° |
| 2026-04-15 23:51 | 52.22639 | -104.82852 | 34859 ft | 552 kts | 41° |
| 2026-04-15 23:52 | 52.28169 | -104.74117 | 34860 ft | 554 kts | 41° |
| 2026-04-15 23:52 | 52.33698 | -104.65348 | 34866 ft | 553 kts | 41° |
| 2026-04-15 23:53 | 52.39218 | -104.56574 | 34865 ft | 553 kts | 41° |
| 2026-04-15 23:53 | 52.44722 | -104.47779 | 34863 ft | 553 kts | 41° |
| 2026-04-15 23:54 | 52.50220 | -104.38961 | 34862 ft | 553 kts | 41° |
| 2026-04-15 23:54 | 52.55711 | -104.30150 | 34885 ft | 554 kts | 41° |
| 2026-04-15 23:55 | 52.58463 | -104.25708 | 35206 ft | 553 kts | 41° |
| 2026-04-15 23:55 | 52.61198 | -104.21278 | 35650 ft | 551 kts | 41° |
| 2026-04-15 23:55 | 52.63929 | -104.16855 | 36055 ft | 550 kts | 41° |
| 2026-04-15 23:55 | 52.66659 | -104.12429 | 36386 ft | 550 kts | 42° |
| 2026-04-15 23:56 | 52.69386 | -104.07996 | 36735 ft | 551 kts | 42° |
| 2026-04-15 23:56 | 52.72078 | -104.03616 | 37069 ft | 551 kts | 42° |
| 2026-04-15 23:56 | 52.74798 | -103.99180 | 37377 ft | 550 kts | 42° |
| 2026-04-15 23:56 | 52.77508 | -103.94741 | 37646 ft | 549 kts | 42° |
| 2026-04-15 23:57 | 52.80216 | -103.90308 | 37897 ft | 548 kts | 42° |
| 2026-04-15 23:57 | 52.82929 | -103.85870 | 38113 ft | 548 kts | 42° |
| 2026-04-15 23:57 | 52.85634 | -103.81437 | 38325 ft | 547 kts | 43° |
| 2026-04-15 23:57 | 52.88330 | -103.76987 | 38548 ft | 547 kts | 43° |
| 2026-04-15 23:58 | 52.91022 | -103.72533 | 38782 ft | 547 kts | 43° |
| 2026-04-15 23:58 | 52.93712 | -103.68092 | 38900 ft | 544 kts | 43° |
| 2026-04-15 23:58 | 52.98995 | -103.59344 | 38898 ft | 532 kts | 43° |
| 2026-04-15 23:59 | 53.04239 | -103.50610 | 38903 ft | 534 kts | 43° |
| 2026-04-15 23:59 | 53.09449 | -103.41934 | 38901 ft | 533 kts | 43° |
| 2026-04-16 00:00 | 53.14677 | -103.33162 | 38901 ft | 534 kts | 43° |
| 2026-04-16 00:00 | 53.19908 | -103.24376 | 38898 ft | 534 kts | 43° |
| 2026-04-16 00:01 | 53.25128 | -103.15561 | 38900 ft | 534 kts | 43° |
| 2026-04-16 00:01 | 53.30347 | -103.06728 | 38909 ft | 535 kts | 43° |
| 2026-04-16 00:02 | 53.35563 | -102.97845 | 38913 ft | 536 kts | 43° |
| 2026-04-16 00:02 | 53.40793 | -102.88943 | 38914 ft | 536 kts | 44° |
| 2026-04-16 00:03 | 53.46005 | -102.79994 | 38915 ft | 536 kts | 44° |
| 2026-04-16 00:03 | 53.51192 | -102.71092 | 38917 ft | 537 kts | 44° |
| 2026-04-16 00:04 | 53.56410 | -102.62083 | 38929 ft | 538 kts | 44° |
| 2026-04-16 00:04 | 53.61638 | -102.53024 | 38928 ft | 540 kts | 44° |
| 2026-04-16 00:05 | 53.66861 | -102.43963 | 38931 ft | 539 kts | 44° |
| 2026-04-16 00:05 | 53.72063 | -102.34850 | 38930 ft | 539 kts | 44° |
| 2026-04-16 00:06 | 53.77285 | -102.25717 | 38934 ft | 541 kts | 44° |
| 2026-04-16 00:06 | 53.82502 | -102.16547 | 38930 ft | 540 kts | 44° |
| 2026-04-16 00:07 | 53.87702 | -102.07356 | 38930 ft | 540 kts | 45° |
| 2026-04-16 00:07 | 53.92901 | -101.98153 | 38932 ft | 540 kts | 45° |
| 2026-04-16 00:08 | 53.98087 | -101.88919 | 38939 ft | 540 kts | 45° |
| 2026-04-16 00:08 | 54.03234 | -101.79726 | 38909 ft | 534 kts | 44° |
| 2026-04-16 00:09 | 54.08356 | -101.70548 | 38912 ft | 535 kts | 44° |
| 2026-04-16 00:09 | 54.13479 | -101.61323 | 38935 ft | 537 kts | 45° |
| 2026-04-16 00:10 | 54.18599 | -101.52075 | 38915 ft | 536 kts | 45° |
| 2026-04-16 00:10 | 54.23709 | -101.42804 | 38912 ft | 536 kts | 44° |
| 2026-04-16 00:11 | 54.28814 | -101.33513 | 38912 ft | 535 kts | 45° |
| 2026-04-16 00:11 | 54.33902 | -101.24209 | 38912 ft | 535 kts | 45° |
| 2026-04-16 00:12 | 54.38993 | -101.14884 | 38929 ft | 536 kts | 45° |
| 2026-04-16 00:12 | 54.44034 | -101.05577 | 38926 ft | 535 kts | 45° |
| 2026-04-16 00:13 | 54.49138 | -100.96153 | 38932 ft | 535 kts | 45° |
| 2026-04-16 00:13 | 54.54159 | -100.86827 | 38930 ft | 536 kts | 45° |
| 2026-04-16 00:14 | 54.59211 | -100.77410 | 38927 ft | 535 kts | 45° |
| 2026-04-16 00:14 | 54.64256 | -100.67971 | 38931 ft | 535 kts | 45° |
| 2026-04-16 00:15 | 54.69298 | -100.58506 | 38930 ft | 536 kts | 44° |
| 2026-04-16 00:15 | 54.74333 | -100.48995 | 38909 ft | 536 kts | 44° |
| 2026-04-16 00:16 | 54.79362 | -100.39489 | 38915 ft | 535 kts | 45° |
| 2026-04-16 00:16 | 54.84379 | -100.29946 | 38910 ft | 535 kts | 45° |
| 2026-04-16 00:17 | 54.89387 | -100.20388 | 38916 ft | 535 kts | 45° |
| 2026-04-16 00:17 | 54.94395 | -100.10818 | 38931 ft | 535 kts | 45° |
| 2026-04-16 00:18 | 54.99368 | -100.01174 | 38929 ft | 535 kts | 49° |
| 2026-04-16 00:18 | 55.03259 | -99.90093 | 38938 ft | 540 kts | 65° |
| 2026-04-16 00:19 | 55.06198 | -99.78034 | 38942 ft | 541 kts | 65° |
| 2026-04-16 00:19 | 55.09576 | -99.66324 | 38939 ft | 539 kts | 60° |
| 2026-04-16 00:20 | 55.12899 | -99.54594 | 38947 ft | 539 kts | 64° |
| 2026-04-16 00:20 | 55.16165 | -99.42788 | 38946 ft | 540 kts | 62° |
| 2026-04-16 00:21 | 55.19469 | -99.31104 | 38951 ft | 539 kts | 64° |
| 2026-04-16 00:21 | 55.22710 | -99.19262 | 38948 ft | 539 kts | 63° |
| 2026-04-16 00:22 | 55.26006 | -99.07456 | 38953 ft | 539 kts | 63° |
| 2026-04-16 00:22 | 55.29237 | -98.95575 | 38968 ft | 539 kts | 63° |
| 2026-04-16 00:23 | 55.32489 | -98.83714 | 38975 ft | 540 kts | 63° |
| 2026-04-16 00:23 | 55.35720 | -98.71819 | 38976 ft | 539 kts | 63° |
| 2026-04-16 00:24 | 55.38934 | -98.59916 | 38989 ft | 539 kts | 63° |
| 2026-04-16 00:24 | 55.42144 | -98.47988 | 38984 ft | 540 kts | 64° |
| 2026-04-16 00:25 | 55.45341 | -98.36019 | 38994 ft | 541 kts | 64° |
| 2026-04-16 00:25 | 55.48535 | -98.24046 | 38997 ft | 539 kts | 64° |
| 2026-04-16 00:26 | 55.51696 | -98.12059 | 38990 ft | 539 kts | 64° |
| 2026-04-16 00:26 | 55.54862 | -98.00078 | 39001 ft | 539 kts | 64° |
| 2026-04-16 00:27 | 55.57997 | -97.88039 | 39004 ft | 540 kts | 64° |
| 2026-04-16 00:27 | 55.61145 | -97.75990 | 39015 ft | 540 kts | 64° |
| 2026-04-16 00:28 | 55.64249 | -97.63978 | 39017 ft | 541 kts | 64° |
| 2026-04-16 00:28 | 55.67376 | -97.51862 | 39007 ft | 541 kts | 64° |
| 2026-04-16 00:29 | 55.70483 | -97.39726 | 39013 ft | 540 kts | 65° |
| 2026-04-16 00:29 | 55.73577 | -97.27581 | 39015 ft | 540 kts | 65° |
| 2026-04-16 00:30 | 55.76656 | -97.15427 | 39002 ft | 540 kts | 65° |
| 2026-04-16 00:30 | 55.79725 | -97.03257 | 39005 ft | 540 kts | 65° |
| 2026-04-16 00:31 | 55.82784 | -96.91063 | 39001 ft | 540 kts | 65° |
| 2026-04-16 00:31 | 55.85830 | -96.78839 | 39002 ft | 541 kts | 65° |
| 2026-04-16 00:32 | 55.88362 | -96.68654 | 39009 ft | 541 kts | 65° |
| 2026-04-16 00:32 | 55.91380 | -96.56383 | 39011 ft | 541 kts | 66° |
| 2026-04-16 00:33 | 55.94406 | -96.44104 | 39010 ft | 542 kts | 65° |
| 2026-04-16 00:33 | 55.97402 | -96.31768 | 39033 ft | 541 kts | 65° |
| 2026-04-16 00:34 | 56.00404 | -96.19420 | 39030 ft | 542 kts | 65° |
| 2026-04-16 00:34 | 56.03384 | -96.07066 | 39031 ft | 541 kts | 66° |
| 2026-04-16 00:35 | 56.06352 | -95.94694 | 39031 ft | 541 kts | 66° |
| 2026-04-16 00:35 | 56.09303 | -95.82298 | 39047 ft | 541 kts | 66° |
| 2026-04-16 00:36 | 56.12247 | -95.69921 | 39053 ft | 541 kts | 66° |
| 2026-04-16 00:36 | 56.15185 | -95.57437 | 39053 ft | 543 kts | 66° |
| 2026-04-16 00:37 | 56.18115 | -95.44965 | 39059 ft | 542 kts | 66° |
| 2026-04-16 00:37 | 56.21020 | -95.32472 | 39078 ft | 543 kts | 66° |
| 2026-04-16 00:38 | 56.23924 | -95.19952 | 39078 ft | 542 kts | 66° |
| 2026-04-16 00:38 | 56.26808 | -95.07427 | 39078 ft | 542 kts | 66° |
| 2026-04-16 00:39 | 56.29681 | -94.94881 | 39080 ft | 542 kts | 66° |
| 2026-04-16 00:39 | 56.32540 | -94.82319 | 39083 ft | 542 kts | 66° |
| 2026-04-16 00:40 | 56.35389 | -94.69734 | 39077 ft | 543 kts | 66° |
| 2026-04-16 00:40 | 56.38120 | -94.57129 | 39080 ft | 543 kts | 68° |
| 2026-04-16 00:41 | 56.40845 | -94.44440 | 39083 ft | 543 kts | 67° |
| 2026-04-16 00:41 | 56.43586 | -94.31723 | 39080 ft | 543 kts | 68° |
| 2026-04-16 00:42 | 56.46277 | -94.19004 | 39080 ft | 542 kts | 68° |
| 2026-04-16 00:42 | 56.48987 | -94.06250 | 39077 ft | 543 kts | 69° |
| 2026-04-16 00:43 | 56.51655 | -93.93485 | 39080 ft | 543 kts | 68° |
| 2026-04-16 00:43 | 56.54340 | -93.80678 | 39083 ft | 544 kts | 68° |
| 2026-04-16 00:44 | 56.56998 | -93.67837 | 39083 ft | 544 kts | 69° |
| 2026-04-16 00:44 | 56.59655 | -93.54982 | 39085 ft | 544 kts | 69° |
| 2026-04-16 00:45 | 56.62283 | -93.42127 | 39084 ft | 543 kts | 68° |
| 2026-04-16 00:45 | 56.64904 | -93.29268 | 39081 ft | 543 kts | 69° |
| 2026-04-16 00:46 | 56.67503 | -93.16363 | 39081 ft | 545 kts | 68° |
| 2026-04-16 00:46 | 56.70096 | -93.03518 | 39086 ft | 545 kts | 69° |
| 2026-04-16 00:47 | 56.72680 | -92.90548 | 39092 ft | 544 kts | 69° |
| 2026-04-16 00:47 | 56.75253 | -92.77571 | 39089 ft | 544 kts | 69° |
| 2026-04-16 00:48 | 56.77812 | -92.64594 | 39090 ft | 545 kts | 69° |
| 2026-04-16 00:48 | 56.80359 | -92.51559 | 39089 ft | 546 kts | 69° |
| 2026-04-16 00:50 | 56.90411 | -91.99327 | 39093 ft | 546 kts | 70° |
| 2026-04-16 00:51 | 56.92889 | -91.86200 | 39094 ft | 546 kts | 69° |
| 2026-04-16 00:51 | 56.95368 | -91.73061 | 39098 ft | 546 kts | 70° |
| 2026-04-16 00:52 | 56.97823 | -91.59884 | 39101 ft | 546 kts | 69° |
| 2026-04-16 00:52 | 57.00263 | -91.46703 | 39096 ft | 545 kts | 70° |
| 2026-04-16 00:53 | 57.02685 | -91.33543 | 39093 ft | 545 kts | 70° |
| 2026-04-16 00:53 | 57.05096 | -91.20338 | 39099 ft | 546 kts | 70° |
| 2026-04-16 00:54 | 57.07502 | -91.07113 | 39099 ft | 545 kts | 70° |
| 2026-04-16 00:54 | 57.09877 | -90.93884 | 39056 ft | 546 kts | 70° |
| 2026-04-16 00:55 | 57.12246 | -90.80652 | 39127 ft | 544 kts | 70° |
| 2026-04-16 00:55 | 57.14604 | -90.67380 | 39134 ft | 545 kts | 70° |
| 2026-04-16 00:56 | 57.16941 | -90.54098 | 39134 ft | 545 kts | 70° |
| 2026-04-16 00:56 | 57.19273 | -90.40807 | 39128 ft | 545 kts | 70° |
| 2026-04-16 00:57 | 57.22733 | -90.20843 | 39134 ft | 545 kts | 70° |
| 2026-04-16 00:58 | 57.25030 | -90.07503 | 39139 ft | 545 kts | 71° |
| 2026-04-16 00:58 | 57.27303 | -89.94125 | 39128 ft | 546 kts | 70° |
| 2026-04-16 00:59 | 57.29575 | -89.80728 | 39128 ft | 546 kts | 71° |
| 2026-04-16 00:59 | 57.31819 | -89.67308 | 39123 ft | 546 kts | 71° |
| 2026-04-16 01:00 | 57.34064 | -89.53895 | 39144 ft | 546 kts | 71° |
| 2026-04-16 01:00 | 57.36271 | -89.40530 | 39143 ft | 547 kts | 71° |
| 2026-04-16 01:01 | 57.38490 | -89.27051 | 39137 ft | 547 kts | 71° |
| 2026-04-16 01:01 | 57.40689 | -89.13579 | 39142 ft | 547 kts | 71° |
| 2026-04-16 01:02 | 57.42876 | -89.00062 | 39139 ft | 546 kts | 71° |
| 2026-04-16 01:02 | 57.45046 | -88.86516 | 39153 ft | 548 kts | 71° |
| 2026-04-16 01:03 | 57.47203 | -88.72957 | 39147 ft | 547 kts | 72° |
| 2026-04-16 01:03 | 57.49338 | -88.59384 | 39138 ft | 548 kts | 71° |
| 2026-04-16 01:04 | 57.51470 | -88.45798 | 39146 ft | 548 kts | 71° |
| 2026-04-16 01:04 | 57.53592 | -88.32195 | 39144 ft | 549 kts | 72° |
| 2026-04-16 01:05 | 57.55680 | -88.18537 | 39145 ft | 548 kts | 72° |
| 2026-04-16 01:05 | 57.57779 | -88.04896 | 39148 ft | 547 kts | 72° |
| 2026-04-16 01:06 | 57.59846 | -87.91241 | 39140 ft | 548 kts | 71° |
| 2026-04-16 01:06 | 57.61904 | -87.77572 | 39143 ft | 547 kts | 72° |
| 2026-04-16 01:07 | 57.63959 | -87.63845 | 39121 ft | 548 kts | 72° |
| 2026-04-16 01:07 | 57.65966 | -87.50112 | 39161 ft | 549 kts | 72° |
| 2026-04-16 01:08 | 57.68008 | -87.36362 | 39151 ft | 549 kts | 73° |
| 2026-04-16 01:08 | 57.69995 | -87.22590 | 39152 ft | 549 kts | 72° |
| 2026-04-16 01:09 | 57.71981 | -87.08805 | 39150 ft | 550 kts | 73° |
| 2026-04-16 01:09 | 57.73955 | -86.94983 | 39151 ft | 549 kts | 73° |
| 2026-04-16 01:10 | 57.75906 | -86.81243 | 39155 ft | 550 kts | 73° |
| 2026-04-16 01:10 | 57.77849 | -86.67352 | 39150 ft | 552 kts | 72° |
| 2026-04-16 01:11 | 57.79785 | -86.53455 | 39150 ft | 551 kts | 73° |
| 2026-04-16 01:11 | 57.81704 | -86.39539 | 39143 ft | 552 kts | 73° |
| 2026-04-16 01:12 | 57.83612 | -86.25627 | 39140 ft | 551 kts | 74° |
| 2026-04-16 01:12 | 57.85495 | -86.11662 | 39150 ft | 552 kts | 72° |
| 2026-04-16 01:13 | 57.87380 | -85.97714 | 39141 ft | 551 kts | 73° |
| 2026-04-16 01:13 | 57.89238 | -85.83727 | 39148 ft | 552 kts | 73° |
| 2026-04-16 01:14 | 57.91074 | -85.69715 | 39151 ft | 551 kts | 74° |
| 2026-04-16 01:14 | 57.92913 | -85.55718 | 39145 ft | 551 kts | 74° |
| 2026-04-16 01:15 | 57.94701 | -85.41662 | 39146 ft | 551 kts | 75° |
| 2026-04-16 01:15 | 57.96529 | -85.27618 | 39097 ft | 553 kts | 75° |
| 2026-04-16 01:16 | 57.98296 | -85.13560 | 39094 ft | 552 kts | 74° |
| 2026-04-16 01:16 | 58.00149 | -84.99529 | 39098 ft | 550 kts | 67° |
| 2026-04-16 01:17 | 58.03164 | -84.86392 | 39102 ft | 542 kts | 59° |
| 2026-04-16 01:17 | 58.06319 | -84.73396 | 39096 ft | 546 kts | 64° |
| 2026-04-16 01:18 | 58.09278 | -84.60355 | 39099 ft | 543 kts | 61° |
| 2026-04-16 01:18 | 58.12379 | -84.47300 | 39096 ft | 545 kts | 63° |
| 2026-04-16 01:19 | 58.15371 | -84.34092 | 39087 ft | 545 kts | 62° |
| 2026-04-16 01:19 | 58.18411 | -84.20935 | 39105 ft | 546 kts | 63° |
| 2026-04-16 01:20 | 58.20936 | -84.09853 | 39093 ft | 547 kts | 63° |
| 2026-04-16 01:20 | 58.24415 | -83.94448 | 39090 ft | 546 kts | 62° |
| 2026-04-16 01:21 | 58.26910 | -83.83435 | 39091 ft | 547 kts | 63° |
| 2026-04-16 01:21 | 58.29880 | -83.70126 | 39094 ft | 546 kts | 63° |
| 2026-04-16 01:22 | 58.32847 | -83.56813 | 39090 ft | 546 kts | 63° |
| 2026-04-16 01:22 | 58.35777 | -83.43483 | 39087 ft | 545 kts | 63° |
| 2026-04-16 01:23 | 58.38716 | -83.30180 | 39086 ft | 545 kts | 63° |
| 2026-04-16 01:23 | 58.41618 | -83.16840 | 39087 ft | 546 kts | 63° |
| 2026-04-16 01:24 | 58.44530 | -83.03472 | 39090 ft | 545 kts | 63° |
| 2026-04-16 01:24 | 58.47400 | -82.90069 | 39090 ft | 545 kts | 64° |
| 2026-04-16 01:25 | 58.50284 | -82.76653 | 39095 ft | 546 kts | 64° |
| 2026-04-16 01:25 | 58.53135 | -82.63188 | 39092 ft | 547 kts | 64° |
| 2026-04-16 01:26 | 58.56000 | -82.49674 | 39063 ft | 548 kts | 64° |
| 2026-04-16 01:26 | 58.58820 | -82.36141 | 39057 ft | 546 kts | 64° |
| 2026-04-16 01:27 | 58.61658 | -82.22591 | 39060 ft | 548 kts | 64° |
| 2026-04-16 01:27 | 58.64481 | -82.09009 | 39065 ft | 548 kts | 64° |
| 2026-04-16 01:28 | 58.67266 | -81.95389 | 39064 ft | 547 kts | 64° |
| 2026-04-16 01:28 | 58.70048 | -81.81794 | 39061 ft | 546 kts | 64° |
| 2026-04-16 01:29 | 58.72814 | -81.68169 | 39061 ft | 548 kts | 65° |
| 2026-04-16 01:29 | 58.75562 | -81.54501 | 39068 ft | 547 kts | 64° |
| 2026-04-16 01:30 | 58.78302 | -81.40825 | 39054 ft | 546 kts | 64° |
| 2026-04-16 01:30 | 58.81019 | -81.27157 | 39057 ft | 546 kts | 65° |
| 2026-04-16 01:31 | 58.83718 | -81.13462 | 39056 ft | 545 kts | 65° |
| 2026-04-16 01:31 | 58.86404 | -80.99789 | 39049 ft | 544 kts | 64° |
| 2026-04-16 01:32 | 58.89065 | -80.86078 | 39081 ft | 545 kts | 65° |
| 2026-04-16 01:32 | 58.91712 | -80.72425 | 39080 ft | 546 kts | 65° |
| 2026-04-16 01:33 | 58.94346 | -80.58643 | 39082 ft | 547 kts | 65° |
| 2026-04-16 01:33 | 58.96991 | -80.44853 | 39077 ft | 546 kts | 65° |
| 2026-04-16 01:34 | 58.99599 | -80.31028 | 39082 ft | 547 kts | 66° |
| 2026-04-16 01:34 | 59.02204 | -80.17170 | 39083 ft | 546 kts | 66° |
| 2026-04-16 01:35 | 59.04797 | -80.03289 | 39084 ft | 547 kts | 66° |
| 2026-04-16 01:35 | 59.07364 | -79.89388 | 39080 ft | 547 kts | 66° |
| 2026-04-16 01:36 | 59.09933 | -79.75451 | 39083 ft | 548 kts | 66° |
| 2026-04-16 01:36 | 59.12473 | -79.61483 | 39082 ft | 547 kts | 66° |
| 2026-04-16 01:37 | 59.15014 | -79.47518 | 39082 ft | 547 kts | 66° |
| 2026-04-16 01:37 | 59.17525 | -79.33526 | 39082 ft | 547 kts | 66° |
| 2026-04-16 01:38 | 59.20029 | -79.19501 | 39084 ft | 548 kts | 66° |
| 2026-04-16 01:38 | 59.22497 | -79.05549 | 39090 ft | 547 kts | 67° |
| 2026-04-16 01:39 | 59.24974 | -78.91505 | 39085 ft | 547 kts | 67° |
| 2026-04-16 01:39 | 59.27419 | -78.77443 | 39087 ft | 547 kts | 66° |
| 2026-04-16 01:40 | 59.29865 | -78.63354 | 39088 ft | 546 kts | 67° |
| 2026-04-16 01:40 | 59.32281 | -78.49269 | 39075 ft | 545 kts | 68° |
| 2026-04-16 01:41 | 59.34684 | -78.35175 | 39079 ft | 545 kts | 68° |
| 2026-04-16 01:41 | 59.37072 | -78.21079 | 39080 ft | 544 kts | 68° |
| 2026-04-16 01:42 | 59.39439 | -78.06973 | 39064 ft | 544 kts | 68° |
| 2026-04-16 01:42 | 59.41795 | -77.92874 | 39068 ft | 544 kts | 68° |
| 2026-04-16 01:43 | 59.44123 | -77.78731 | 39060 ft | 544 kts | 68° |
| 2026-04-16 01:43 | 59.46445 | -77.64568 | 39062 ft | 545 kts | 68° |
| 2026-04-16 01:44 | 59.48754 | -77.50381 | 39050 ft | 545 kts | 68° |
| 2026-04-16 01:44 | 59.51053 | -77.36140 | 39050 ft | 546 kts | 68° |
| 2026-04-16 01:45 | 59.53332 | -77.21852 | 39056 ft | 546 kts | 68° |
| 2026-04-16 01:45 | 59.55616 | -77.07537 | 39041 ft | 548 kts | 69° |
| 2026-04-16 01:46 | 59.57864 | -76.93199 | 39044 ft | 547 kts | 69° |
| 2026-04-16 01:46 | 59.60109 | -76.78849 | 39041 ft | 548 kts | 69° |
| 2026-04-16 01:47 | 59.62336 | -76.64463 | 39039 ft | 547 kts | 69° |
| 2026-04-16 01:47 | 59.64539 | -76.50089 | 39034 ft | 547 kts | 69° |
| 2026-04-16 01:48 | 59.66732 | -76.35723 | 39038 ft | 547 kts | 70° |
| 2026-04-16 01:48 | 59.68900 | -76.21315 | 39038 ft | 546 kts | 70° |
| 2026-04-16 01:49 | 59.71060 | -76.06914 | 39038 ft | 545 kts | 70° |
| 2026-04-16 01:49 | 59.73194 | -75.92533 | 39036 ft | 545 kts | 70° |
| 2026-04-16 01:50 | 59.75310 | -75.78131 | 39034 ft | 544 kts | 70° |
| 2026-04-16 01:50 | 59.77421 | -75.63661 | 39036 ft | 546 kts | 70° |
| 2026-04-16 01:51 | 59.79511 | -75.49170 | 39042 ft | 546 kts | 71° |
| 2026-04-16 01:51 | 59.81581 | -75.34762 | 39035 ft | 546 kts | 71° |
| 2026-04-16 01:52 | 59.83640 | -75.20208 | 39029 ft | 548 kts | 71° |
| 2026-04-16 01:52 | 59.85701 | -75.05612 | 39028 ft | 548 kts | 71° |
| 2026-04-16 01:53 | 59.87735 | -74.90991 | 39029 ft | 549 kts | 71° |
| 2026-04-16 01:53 | 59.89759 | -74.76329 | 39035 ft | 549 kts | 71° |
| 2026-04-16 01:54 | 59.91773 | -74.61641 | 39033 ft | 549 kts | 71° |
| 2026-04-16 01:54 | 59.93763 | -74.46950 | 39011 ft | 549 kts | 72° |
| 2026-04-16 01:55 | 59.95736 | -74.32255 | 39026 ft | 548 kts | 72° |
| 2026-04-16 01:55 | 59.97694 | -74.17548 | 38996 ft | 548 kts | 72° |
| 2026-04-16 01:56 | 59.99633 | -74.02845 | 38998 ft | 547 kts | 72° |
| 2026-04-16 01:56 | 60.02094 | -73.88519 | 39000 ft | 545 kts | 66° |
| 2026-04-16 01:57 | 60.04754 | -73.74343 | 38991 ft | 545 kts | 67° |
| 2026-04-16 01:57 | 60.07312 | -73.60084 | 38986 ft | 544 kts | 66° |
| 2026-04-16 01:58 | 60.09907 | -73.45871 | 38973 ft | 543 kts | 67° |
| 2026-04-16 01:58 | 60.12457 | -73.31616 | 38950 ft | 542 kts | 67° |
| 2026-04-16 01:59 | 60.15006 | -73.17381 | 38948 ft | 542 kts | 68° |
| 2026-04-16 01:59 | 60.17514 | -73.03126 | 38942 ft | 542 kts | 68° |
| 2026-04-16 02:00 | 60.20028 | -72.88832 | 38942 ft | 542 kts | 68° |
| 2026-04-16 02:00 | 60.22519 | -72.74536 | 38935 ft | 542 kts | 68° |
| 2026-04-16 02:01 | 60.24996 | -72.60202 | 38937 ft | 542 kts | 69° |
| 2026-04-16 02:01 | 60.27464 | -72.45821 | 38915 ft | 544 kts | 68° |
| 2026-04-16 02:02 | 60.29917 | -72.31406 | 38913 ft | 544 kts | 69° |
| 2026-04-16 02:02 | 60.32358 | -72.16947 | 38918 ft | 545 kts | 69° |
| 2026-04-16 02:03 | 60.34783 | -72.02453 | 38914 ft | 546 kts | 69° |
| 2026-04-16 02:03 | 60.37203 | -71.87928 | 38900 ft | 546 kts | 69° |
| 2026-04-16 02:04 | 60.40776 | -71.66192 | 38899 ft | 544 kts | 70° |
| 2026-04-16 02:04 | 60.43146 | -71.51642 | 38901 ft | 543 kts | 70° |
| 2026-04-16 02:05 | 60.45494 | -71.37088 | 38894 ft | 543 kts | 70° |
| 2026-04-16 02:05 | 60.47827 | -71.22533 | 38895 ft | 543 kts | 70° |
| 2026-04-16 02:06 | 60.50155 | -71.07941 | 38883 ft | 543 kts | 71° |
| 2026-04-16 02:06 | 60.52441 | -70.93334 | 38883 ft | 543 kts | 71° |
| 2026-04-16 02:07 | 60.54349 | -70.81197 | 38881 ft | 543 kts | 71° |
| 2026-04-16 02:07 | 60.56622 | -70.66531 | 38872 ft | 545 kts | 71° |
| 2026-04-16 02:08 | 60.58878 | -70.51850 | 38874 ft | 543 kts | 71° |
| 2026-04-16 02:08 | 60.61124 | -70.37141 | 38876 ft | 546 kts | 71° |
| 2026-04-16 02:09 | 60.63372 | -70.22264 | 38877 ft | 546 kts | 71° |
| 2026-04-16 02:09 | 60.65578 | -70.07558 | 38865 ft | 546 kts | 72° |
| 2026-04-16 02:10 | 60.67781 | -69.92735 | 38870 ft | 546 kts | 72° |
| 2026-04-16 02:10 | 60.69970 | -69.77895 | 38865 ft | 545 kts | 72° |
| 2026-04-16 02:11 | 60.72131 | -69.63050 | 38859 ft | 545 kts | 72° |
| 2026-04-16 02:11 | 60.74280 | -69.48228 | 38857 ft | 544 kts | 72° |
| 2026-04-16 02:12 | 60.76405 | -69.33408 | 38854 ft | 543 kts | 73° |
| 2026-04-16 02:12 | 60.78508 | -69.18582 | 38845 ft | 542 kts | 73° |
| 2026-04-16 02:13 | 60.80596 | -69.03790 | 38843 ft | 540 kts | 73° |
| 2026-04-16 02:13 | 60.82660 | -68.88976 | 38843 ft | 540 kts | 73° |
| 2026-04-16 02:14 | 60.84712 | -68.74168 | 38841 ft | 540 kts | 73° |
| 2026-04-16 02:14 | 60.86739 | -68.59306 | 38835 ft | 541 kts | 74° |
| 2026-04-16 02:15 | 60.88762 | -68.44464 | 38832 ft | 539 kts | 74° |
| 2026-04-16 02:15 | 60.90755 | -68.29598 | 38776 ft | 539 kts | 74° |
| 2026-04-16 02:16 | 60.92740 | -68.14733 | 38720 ft | 540 kts | 74° |
| 2026-04-16 02:16 | 60.94697 | -67.99856 | 38723 ft | 538 kts | 74° |
| 2026-04-16 02:17 | 60.96642 | -67.84996 | 38719 ft | 537 kts | 75° |
| 2026-04-16 02:17 | 60.98564 | -67.70086 | 38721 ft | 538 kts | 75° |
| 2026-04-16 02:18 | 61.00482 | -67.55175 | 38720 ft | 538 kts | 75° |
| 2026-04-16 02:18 | 61.02372 | -67.40291 | 38708 ft | 538 kts | 76° |
| 2026-04-16 02:19 | 61.04227 | -67.25456 | 38708 ft | 538 kts | 76° |
| 2026-04-16 02:19 | 61.06091 | -67.10498 | 38703 ft | 539 kts | 76° |
| 2026-04-16 02:20 | 61.07931 | -66.95523 | 38706 ft | 538 kts | 76° |
| 2026-04-16 02:20 | 61.09764 | -66.80544 | 38698 ft | 538 kts | 77° |
| 2026-04-16 02:21 | 61.11571 | -66.65539 | 38700 ft | 538 kts | 77° |
| 2026-04-16 02:21 | 61.13363 | -66.50526 | 38699 ft | 537 kts | 77° |
| 2026-04-16 02:22 | 61.15130 | -66.35507 | 38704 ft | 539 kts | 77° |
| 2026-04-16 02:22 | 61.16903 | -66.20450 | 38684 ft | 536 kts | 77° |
| 2026-04-16 02:23 | 61.18642 | -66.05378 | 38686 ft | 537 kts | 78° |
| 2026-04-16 02:23 | 61.20368 | -65.90304 | 38685 ft | 537 kts | 78° |
| 2026-04-16 02:24 | 61.22077 | -65.75176 | 38687 ft | 539 kts | 78° |
| 2026-04-16 02:24 | 61.23775 | -65.60003 | 38679 ft | 539 kts | 79° |
| 2026-04-16 02:25 | 61.25457 | -65.44823 | 38680 ft | 540 kts | 79° |
| 2026-04-16 02:25 | 61.27119 | -65.29610 | 38678 ft | 540 kts | 79° |
| 2026-04-16 02:26 | 61.28774 | -65.14357 | 38681 ft | 541 kts | 79° |
| 2026-04-16 02:26 | 61.30403 | -64.99076 | 38668 ft | 542 kts | 79° |
| 2026-04-16 02:27 | 61.32027 | -64.83781 | 38666 ft | 541 kts | 79° |
| 2026-04-16 02:27 | 61.33626 | -64.68478 | 38668 ft | 542 kts | 79° |
| 2026-04-16 02:28 | 61.35206 | -64.53132 | 38666 ft | 542 kts | 80° |
| 2026-04-16 02:28 | 61.36772 | -64.37869 | 38669 ft | 541 kts | 79° |
| 2026-04-16 02:29 | 61.38315 | -64.22509 | 38672 ft | 541 kts | 80° |
| 2026-04-16 02:29 | 61.39848 | -64.07164 | 38649 ft | 540 kts | 80° |
| 2026-04-16 02:30 | 61.41357 | -63.91830 | 38675 ft | 539 kts | 80° |
| 2026-04-16 02:30 | 61.42849 | -63.76456 | 38677 ft | 540 kts | 80° |
| 2026-04-16 02:31 | 61.44329 | -63.61057 | 38680 ft | 541 kts | 81° |
| 2026-04-16 02:31 | 61.45788 | -63.45639 | 38679 ft | 541 kts | 81° |
| 2026-04-16 02:32 | 61.47235 | -63.30244 | 38677 ft | 539 kts | 81° |
| 2026-04-16 02:32 | 61.48647 | -63.14827 | 38681 ft | 539 kts | 81° |
| 2026-04-16 02:33 | 61.49993 | -62.99404 | 38684 ft | 536 kts | 87° |
| 2026-04-16 02:33 | 61.50207 | -62.83860 | 38679 ft | 532 kts | 93° |
| 2026-04-16 02:34 | 61.50308 | -62.68386 | 38698 ft | 531 kts | 90° |
| 2026-04-16 02:34 | 61.50492 | -62.52924 | 38701 ft | 530 kts | 92° |
| 2026-04-16 02:35 | 61.50568 | -62.37596 | 38680 ft | 529 kts | 91° |
| 2026-04-16 02:35 | 61.50699 | -62.22207 | 38682 ft | 528 kts | 91° |
| 2026-04-16 02:36 | 61.50760 | -62.06866 | 38677 ft | 527 kts | 92° |
| 2026-04-16 02:36 | 61.50842 | -61.91530 | 38679 ft | 526 kts | 92° |
| 2026-04-16 02:37 | 61.50877 | -61.76228 | 38678 ft | 525 kts | 92° |
| 2026-04-16 02:37 | 61.50922 | -61.60894 | 38670 ft | 527 kts | 92° |
| 2026-04-16 02:38 | 61.50921 | -61.45539 | 38662 ft | 527 kts | 92° |
| 2026-04-16 02:38 | 61.50926 | -61.30196 | 38662 ft | 527 kts | 92° |
| 2026-04-16 02:39 | 61.50901 | -61.14838 | 38660 ft | 527 kts | 93° |
| 2026-04-16 02:39 | 61.50868 | -60.99469 | 38652 ft | 528 kts | 93° |
| 2026-04-16 02:40 | 61.50807 | -60.84089 | 38662 ft | 528 kts | 93° |
| 2026-04-16 02:40 | 61.50738 | -60.68725 | 38664 ft | 528 kts | 94° |
| 2026-04-16 02:41 | 61.50647 | -60.53350 | 38665 ft | 527 kts | 94° |
| 2026-04-16 02:41 | 61.50540 | -60.38010 | 38674 ft | 527 kts | 94° |
| 2026-04-16 02:42 | 61.50413 | -60.22659 | 38682 ft | 527 kts | 94° |
| 2026-04-16 02:42 | 61.50275 | -60.07331 | 38680 ft | 526 kts | 94° |
| 2026-04-16 02:43 | 61.50113 | -59.92009 | 38682 ft | 525 kts | 95° |
| 2026-04-16 02:43 | 61.49943 | -59.76796 | 38688 ft | 527 kts | 95° |
| 2026-04-16 02:44 | 61.49747 | -59.61495 | 38689 ft | 526 kts | 95° |
| 2026-04-16 02:44 | 61.49540 | -59.46207 | 38692 ft | 525 kts | 95° |
| 2026-04-16 02:45 | 61.49310 | -59.30894 | 38701 ft | 526 kts | 95° |
| 2026-04-16 02:45 | 61.49071 | -59.15597 | 38699 ft | 526 kts | 95° |
| 2026-04-16 02:46 | 61.48805 | -59.00304 | 38701 ft | 525 kts | 95° |
| 2026-04-16 02:46 | 61.48531 | -58.85044 | 38710 ft | 525 kts | 95° |
| 2026-04-16 02:47 | 61.48233 | -58.69797 | 38706 ft | 524 kts | 96° |
| 2026-04-16 02:47 | 61.47923 | -58.54583 | 38709 ft | 523 kts | 95° |
| 2026-04-16 02:48 | 61.47596 | -58.39397 | 38719 ft | 522 kts | 96° |
| 2026-04-16 02:48 | 61.47253 | -58.24220 | 38721 ft | 523 kts | 96° |
| 2026-04-16 02:49 | 61.46893 | -58.09061 | 38725 ft | 521 kts | 96° |
| 2026-04-16 02:49 | 61.46505 | -57.93932 | 38726 ft | 520 kts | 96° |
| 2026-04-16 02:50 | 61.46046 | -57.78831 | 38727 ft | 520 kts | 96° |
| 2026-04-16 02:50 | 61.45604 | -57.63750 | 38736 ft | 520 kts | 96° |
| 2026-04-16 02:51 | 61.45112 | -57.48753 | 38735 ft | 521 kts | 96° |
| 2026-04-16 02:51 | 61.44634 | -57.33677 | 38748 ft | 520 kts | 97° |
| 2026-04-16 02:52 | 61.44118 | -57.18598 | 38749 ft | 521 kts | 96° |
| 2026-04-16 02:52 | 61.43586 | -57.03523 | 38751 ft | 520 kts | 97° |
| 2026-04-16 02:53 | 61.43056 | -56.88479 | 38749 ft | 519 kts | 97° |
| 2026-04-16 02:53 | 61.42492 | -56.73487 | 38753 ft | 517 kts | 97° |
| 2026-04-16 02:54 | 61.41928 | -56.58477 | 38773 ft | 519 kts | 97° |
| 2026-04-16 02:54 | 61.41329 | -56.43509 | 38784 ft | 517 kts | 97° |
| 2026-04-16 02:55 | 61.40732 | -56.28629 | 38774 ft | 516 kts | 97° |
| 2026-04-16 02:55 | 61.40213 | -56.16242 | 38774 ft | 515 kts | 98° |
| 2026-04-16 02:56 | 61.39586 | -56.01349 | 38772 ft | 515 kts | 98° |
| 2026-04-16 02:56 | 61.38936 | -55.86480 | 38781 ft | 514 kts | 98° |
| 2026-04-16 02:57 | 61.38269 | -55.71624 | 38783 ft | 515 kts | 98° |
| 2026-04-16 02:57 | 61.37593 | -55.56738 | 38789 ft | 516 kts | 98° |
| 2026-04-16 02:58 | 61.36888 | -55.41849 | 38778 ft | 515 kts | 98° |
| 2026-04-16 02:58 | 61.36177 | -55.26977 | 38782 ft | 516 kts | 98° |
| 2026-04-16 02:59 | 61.35447 | -55.12131 | 38888 ft | 515 kts | 98° |
| 2026-04-16 02:59 | 61.34701 | -54.97269 | 38903 ft | 516 kts | 99° |
| 2026-04-16 03:00 | 61.33937 | -54.82413 | 38905 ft | 516 kts | 99° |
| 2026-04-16 03:00 | 61.33155 | -54.67556 | 38906 ft | 515 kts | 99° |
| 2026-04-16 03:01 | 61.32372 | -54.52838 | 38910 ft | 516 kts | 99° |
| 2026-04-16 03:01 | 61.31554 | -54.38022 | 38907 ft | 514 kts | 99° |
| 2026-04-16 03:02 | 61.30730 | -54.23218 | 38907 ft | 515 kts | 99° |
| 2026-04-16 03:02 | 61.29888 | -54.08437 | 38913 ft | 514 kts | 100° |
| 2026-04-16 03:03 | 61.29022 | -53.93660 | 38915 ft | 514 kts | 100° |
| 2026-04-16 03:03 | 61.28160 | -53.78911 | 38911 ft | 514 kts | 100° |
| 2026-04-16 03:04 | 61.27265 | -53.64187 | 38908 ft | 513 kts | 100° |
| 2026-04-16 03:04 | 61.26365 | -53.49453 | 38914 ft | 514 kts | 100° |
| 2026-04-16 03:05 | 61.25440 | -53.34726 | 38917 ft | 514 kts | 100° |
| 2026-04-16 03:05 | 61.24506 | -53.19997 | 38925 ft | 515 kts | 100° |
| 2026-04-16 03:06 | 61.23545 | -53.05252 | 38925 ft | 515 kts | 100° |
| 2026-04-16 03:07 | 61.22087 | -52.83144 | 38918 ft | 515 kts | 101° |
| 2026-04-16 03:07 | 61.21087 | -52.68420 | 38921 ft | 516 kts | 101° |
| 2026-04-16 03:08 | 61.20077 | -52.53692 | 38915 ft | 515 kts | 101° |
| 2026-04-16 03:08 | 61.19058 | -52.38972 | 38924 ft | 516 kts | 101° |
| 2026-04-16 03:09 | 61.17996 | -52.24261 | 38903 ft | 516 kts | 101° |
| 2026-04-16 03:09 | 61.16952 | -52.09642 | 38909 ft | 517 kts | 101° |
| 2026-04-16 03:10 | 61.15871 | -51.94932 | 38908 ft | 517 kts | 101° |
| 2026-04-16 03:10 | 61.14775 | -51.80171 | 38904 ft | 513 kts | 101° |
| 2026-04-16 03:11 | 61.13673 | -51.65686 | 38904 ft | 514 kts | 101° |
| 2026-04-16 03:11 | 61.12559 | -51.50983 | 38935 ft | 514 kts | 102° |
| 2026-04-16 03:12 | 61.11415 | -51.36402 | 38935 ft | 514 kts | 102° |
| 2026-04-16 03:12 | 61.10277 | -51.21923 | 38908 ft | 514 kts | 102° |
| 2026-04-16 03:13 | 61.09110 | -51.07383 | 38893 ft | 512 kts | 102° |
| 2026-04-16 03:13 | 61.07934 | -50.92879 | 38894 ft | 511 kts | 102° |
| 2026-04-16 03:14 | 61.06744 | -50.78423 | 38892 ft | 510 kts | 102° |
| 2026-04-16 03:14 | 61.05540 | -50.63996 | 38894 ft | 509 kts | 102° |
| 2026-04-16 03:15 | 61.04320 | -50.49586 | 38889 ft | 509 kts | 102° |
| 2026-04-16 03:15 | 61.03087 | -50.35210 | 38891 ft | 509 kts | 102° |
| 2026-04-16 03:16 | 61.01844 | -50.20864 | 38887 ft | 508 kts | 102° |
| 2026-04-16 03:16 | 61.00585 | -50.06523 | 38890 ft | 510 kts | 103° |
| 2026-04-16 03:17 | 60.99987 | -49.91988 | 38893 ft | 512 kts | 88° |
| 2026-04-16 03:17 | 61.00789 | -49.77417 | 38890 ft | 512 kts | 84° |
| 2026-04-16 03:18 | 61.01373 | -49.62810 | 38889 ft | 511 kts | 90° |
| 2026-04-16 03:18 | 61.01788 | -49.48207 | 38890 ft | 511 kts | 86° |
| 2026-04-16 03:19 | 61.02329 | -49.33587 | 38890 ft | 511 kts | 89° |
| 2026-04-16 03:19 | 61.02746 | -49.18951 | 38884 ft | 511 kts | 87° |
| 2026-04-16 03:20 | 61.03221 | -49.04314 | 38870 ft | 512 kts | 89° |
| 2026-04-16 03:20 | 61.03629 | -48.89673 | 38876 ft | 512 kts | 88° |
| 2026-04-16 03:21 | 61.04062 | -48.75009 | 38871 ft | 512 kts | 89° |
| 2026-04-16 03:21 | 61.04445 | -48.60456 | 38873 ft | 511 kts | 89° |
| 2026-04-16 03:22 | 61.04838 | -48.45809 | 38868 ft | 511 kts | 89° |
| 2026-04-16 03:22 | 61.05199 | -48.31180 | 38870 ft | 510 kts | 89° |
| 2026-04-16 03:23 | 61.05552 | -48.16543 | 38868 ft | 511 kts | 89° |
| 2026-04-16 03:23 | 61.05892 | -48.01886 | 38872 ft | 512 kts | 89° |
| 2026-04-16 03:24 | 61.06202 | -47.87228 | 38871 ft | 510 kts | 89° |
| 2026-04-16 03:24 | 61.06513 | -47.72600 | 38866 ft | 510 kts | 89° |
| 2026-04-16 03:25 | 61.06786 | -47.57970 | 38870 ft | 510 kts | 89° |
| 2026-04-16 03:25 | 61.07073 | -47.43342 | 38871 ft | 510 kts | 89° |
| 2026-04-16 03:26 | 61.07321 | -47.28703 | 38872 ft | 510 kts | 90° |
| 2026-04-16 03:26 | 61.07565 | -47.14074 | 38870 ft | 510 kts | 90° |
| 2026-04-16 03:27 | 61.07786 | -46.99422 | 38873 ft | 511 kts | 90° |
| 2026-04-16 03:27 | 61.07993 | -46.84781 | 38867 ft | 509 kts | 90° |
| 2026-04-16 03:28 | 61.08181 | -46.70160 | 38869 ft | 509 kts | 90° |
| 2026-04-16 03:28 | 61.08367 | -46.55560 | 38866 ft | 509 kts | 90° |
| 2026-04-16 03:29 | 61.08519 | -46.40966 | 38862 ft | 508 kts | 90° |
| 2026-04-16 03:29 | 61.08666 | -46.26360 | 38865 ft | 509 kts | 90° |
| 2026-04-16 03:30 | 61.08793 | -46.11729 | 38865 ft | 509 kts | 90° |
| 2026-04-16 03:30 | 61.08907 | -45.97119 | 38867 ft | 509 kts | 90° |
| 2026-04-16 03:31 | 61.09003 | -45.82546 | 38865 ft | 505 kts | 91° |
| 2026-04-16 03:31 | 61.09080 | -45.68017 | 38862 ft | 505 kts | 91° |
| 2026-04-16 03:32 | 61.09151 | -45.53483 | 38863 ft | 506 kts | 91° |
| 2026-04-16 03:34 | 61.09250 | -44.95494 | 38863 ft | 504 kts | 91° |
| 2026-04-16 03:34 | 61.09245 | -44.81018 | 38861 ft | 504 kts | 91° |
| 2026-04-16 03:35 | 61.09213 | -44.66547 | 38860 ft | 503 kts | 92° |
| 2026-04-16 03:35 | 61.09174 | -44.52088 | 38860 ft | 504 kts | 92° |
| 2026-04-16 03:36 | 61.09109 | -44.37606 | 38865 ft | 504 kts | 92° |
| 2026-04-16 03:36 | 61.09039 | -44.23121 | 38869 ft | 504 kts | 92° |
| 2026-04-16 03:37 | 61.08949 | -44.08645 | 38869 ft | 503 kts | 92° |
| 2026-04-16 03:37 | 61.08837 | -43.94183 | 38853 ft | 503 kts | 92° |
| 2026-04-16 03:38 | 61.08722 | -43.79771 | 38830 ft | 501 kts | 92° |
| 2026-04-16 03:38 | 61.08586 | -43.65372 | 38835 ft | 502 kts | 93° |
| 2026-04-16 03:39 | 61.08434 | -43.50948 | 38831 ft | 502 kts | 92° |
| 2026-04-16 03:39 | 61.08268 | -43.36528 | 38832 ft | 502 kts | 93° |
| 2026-04-16 03:40 | 61.08087 | -43.22118 | 38831 ft | 502 kts | 93° |
| 2026-04-16 03:40 | 61.07894 | -43.07786 | 38830 ft | 502 kts | 93° |
| 2026-04-16 03:41 | 61.07674 | -42.93292 | 38831 ft | 501 kts | 93° |
| 2026-04-16 03:41 | 61.07453 | -42.78986 | 38829 ft | 502 kts | 94° |
| 2026-04-16 03:42 | 61.07205 | -42.64552 | 38831 ft | 503 kts | 93° |
| 2026-04-16 03:42 | 61.06949 | -42.50127 | 38831 ft | 503 kts | 94° |
| 2026-04-16 03:43 | 61.06678 | -42.35728 | 38826 ft | 502 kts | 94° |
| 2026-04-16 03:43 | 61.06382 | -42.21335 | 38827 ft | 502 kts | 94° |
| 2026-04-16 03:44 | 61.06135 | -42.09246 | 38831 ft | 503 kts | 94° |
| 2026-04-16 03:44 | 61.05812 | -41.94843 | 38832 ft | 502 kts | 94° |
| 2026-04-16 03:45 | 61.05482 | -41.80551 | 38829 ft | 501 kts | 95° |
| 2026-04-16 03:45 | 61.05134 | -41.66192 | 38830 ft | 502 kts | 94° |
| 2026-04-16 03:46 | 61.04773 | -41.51807 | 38831 ft | 502 kts | 95° |
| 2026-04-16 03:46 | 61.04394 | -41.37409 | 38831 ft | 502 kts | 94° |
| 2026-04-16 03:47 | 61.04003 | -41.23037 | 38817 ft | 502 kts | 95° |
| 2026-04-16 03:47 | 61.03591 | -41.08661 | 38818 ft | 502 kts | 95° |
| 2026-04-16 03:48 | 61.03163 | -40.94310 | 38818 ft | 500 kts | 95° |
| 2026-04-16 03:48 | 61.02734 | -40.79960 | 38819 ft | 501 kts | 95° |
| 2026-04-16 03:49 | 61.02273 | -40.65614 | 38817 ft | 502 kts | 95° |
| 2026-04-16 03:49 | 61.01804 | -40.51274 | 38817 ft | 500 kts | 95° |
| 2026-04-16 03:50 | 61.01321 | -40.36924 | 38820 ft | 502 kts | 95° |
| 2026-04-16 03:50 | 61.00818 | -40.22564 | 38824 ft | 503 kts | 96° |
| 2026-04-16 03:51 | 61.00310 | -40.08200 | 38819 ft | 502 kts | 96° |
| 2026-04-16 03:51 | 60.99620 | -39.93898 | 38817 ft | 502 kts | 99° |
| 2026-04-16 03:52 | 60.98764 | -39.79644 | 38808 ft | 502 kts | 98° |
| 2026-04-16 03:52 | 60.97866 | -39.65407 | 38811 ft | 501 kts | 99° |
| 2026-04-16 03:53 | 60.96965 | -39.51192 | 38811 ft | 501 kts | 98° |
| 2026-04-16 03:53 | 60.96046 | -39.36984 | 38815 ft | 501 kts | 99° |
| 2026-04-16 03:54 | 60.95113 | -39.22796 | 38813 ft | 500 kts | 99° |
| 2026-04-16 03:54 | 60.94168 | -39.08613 | 38812 ft | 500 kts | 99° |
| 2026-04-16 03:55 | 60.93206 | -38.94437 | 38812 ft | 500 kts | 99° |
| 2026-04-16 03:55 | 60.92234 | -38.80367 | 38812 ft | 501 kts | 99° |
| 2026-04-16 03:56 | 60.91241 | -38.66196 | 38814 ft | 501 kts | 99° |
| 2026-04-16 03:56 | 60.90233 | -38.52038 | 38813 ft | 502 kts | 99° |
| 2026-04-16 03:57 | 60.89207 | -38.37854 | 38809 ft | 501 kts | 99° |
| 2026-04-16 03:57 | 60.88169 | -38.23705 | 38800 ft | 501 kts | 99° |
| 2026-04-16 03:58 | 60.87113 | -38.09552 | 38799 ft | 502 kts | 100° |
| 2026-04-16 03:58 | 60.86048 | -37.95396 | 38801 ft | 502 kts | 100° |
| 2026-04-16 03:59 | 60.84962 | -37.81276 | 38807 ft | 500 kts | 101° |
| 2026-04-16 03:59 | 60.83867 | -37.67162 | 38799 ft | 501 kts | 100° |
| 2026-04-16 04:00 | 60.82755 | -37.53080 | 38797 ft | 500 kts | 100° |
| 2026-04-16 04:00 | 60.81628 | -37.39018 | 38798 ft | 501 kts | 100° |
| 2026-04-16 04:01 | 60.80493 | -37.24952 | 38802 ft | 500 kts | 101° |
| 2026-04-16 04:01 | 60.79332 | -37.10882 | 38801 ft | 501 kts | 101° |
| 2026-04-16 04:02 | 60.78161 | -36.96806 | 38724 ft | 502 kts | 101° |
| 2026-04-16 04:02 | 60.76980 | -36.82761 | 38676 ft | 499 kts | 101° |
| 2026-04-16 04:03 | 60.75779 | -36.68785 | 38673 ft | 500 kts | 101° |
| 2026-04-16 04:03 | 60.74569 | -36.54783 | 38670 ft | 500 kts | 101° |
| 2026-04-16 04:04 | 60.73342 | -36.40804 | 38673 ft | 500 kts | 101° |
| 2026-04-16 04:04 | 60.72100 | -36.26824 | 38674 ft | 499 kts | 101° |
| 2026-04-16 04:05 | 60.70845 | -36.12864 | 38674 ft | 500 kts | 101° |
| 2026-04-16 04:05 | 60.69575 | -35.98910 | 38674 ft | 500 kts | 101° |
| 2026-04-16 04:06 | 60.68286 | -35.84975 | 38672 ft | 501 kts | 102° |
| 2026-04-16 04:06 | 60.66992 | -35.71044 | 38673 ft | 500 kts | 101° |
| 2026-04-16 04:07 | 60.65677 | -35.57131 | 38673 ft | 500 kts | 102° |
| 2026-04-16 04:07 | 60.63682 | -35.36253 | 38667 ft | 500 kts | 102° |
| 2026-04-16 04:08 | 60.62329 | -35.22368 | 38643 ft | 499 kts | 102° |
| 2026-04-16 04:08 | 60.60969 | -35.08526 | 38639 ft | 498 kts | 102° |
| 2026-04-16 04:09 | 60.59596 | -34.94719 | 38647 ft | 498 kts | 102° |
| 2026-04-16 04:09 | 60.58210 | -34.80914 | 38642 ft | 498 kts | 102° |
| 2026-04-16 04:10 | 60.56806 | -34.67131 | 38648 ft | 499 kts | 102° |
| 2026-04-16 04:10 | 60.55399 | -34.53424 | 38645 ft | 498 kts | 102° |
| 2026-04-16 04:11 | 60.53973 | -34.39662 | 38644 ft | 498 kts | 103° |
| 2026-04-16 04:11 | 60.52526 | -34.25918 | 38645 ft | 498 kts | 103° |
| 2026-04-16 04:12 | 60.51071 | -34.12166 | 38645 ft | 498 kts | 103° |
| 2026-04-16 04:12 | 60.49594 | -33.98420 | 38649 ft | 499 kts | 103° |
| 2026-04-16 04:13 | 60.48103 | -33.84683 | 38641 ft | 498 kts | 103° |
| 2026-04-16 04:13 | 60.46609 | -33.70993 | 38637 ft | 497 kts | 103° |
| 2026-04-16 04:14 | 60.45091 | -33.57328 | 38634 ft | 497 kts | 103° |
| 2026-04-16 04:14 | 60.43585 | -33.43651 | 38630 ft | 497 kts | 103° |
| 2026-04-16 04:15 | 60.42018 | -33.30003 | 38629 ft | 498 kts | 104° |
| 2026-04-16 04:15 | 60.40474 | -33.16344 | 38631 ft | 498 kts | 104° |
| 2026-04-16 04:16 | 60.38900 | -33.02717 | 38625 ft | 497 kts | 103° |
| 2026-04-16 04:16 | 60.37324 | -32.89101 | 38629 ft | 498 kts | 104° |
| 2026-04-16 04:17 | 60.35720 | -32.75509 | 38632 ft | 497 kts | 104° |
| 2026-04-16 04:17 | 60.34111 | -32.61913 | 38628 ft | 497 kts | 104° |
| 2026-04-16 04:18 | 60.32489 | -32.48349 | 38627 ft | 498 kts | 104° |
| 2026-04-16 04:18 | 60.30847 | -32.34767 | 38618 ft | 498 kts | 104° |
| 2026-04-16 04:19 | 60.29196 | -32.21210 | 38618 ft | 498 kts | 105° |
| 2026-04-16 04:19 | 60.27539 | -32.07773 | 38621 ft | 498 kts | 104° |
| 2026-04-16 04:20 | 60.25859 | -31.94212 | 38625 ft | 499 kts | 105° |
| 2026-04-16 04:20 | 60.24163 | -31.80697 | 38619 ft | 498 kts | 105° |
| 2026-04-16 04:21 | 60.22449 | -31.67166 | 38624 ft | 499 kts | 105° |
| 2026-04-16 04:21 | 60.20724 | -31.53655 | 38627 ft | 498 kts | 105° |
| 2026-04-16 04:22 | 60.18989 | -31.40171 | 38615 ft | 498 kts | 105° |
| 2026-04-16 04:22 | 60.17236 | -31.26706 | 38616 ft | 498 kts | 105° |
| 2026-04-16 04:23 | 60.15473 | -31.13274 | 38611 ft | 497 kts | 105° |
| 2026-04-16 04:23 | 60.13703 | -30.99863 | 38614 ft | 497 kts | 105° |
| 2026-04-16 04:24 | 60.11918 | -30.86445 | 38617 ft | 498 kts | 105° |
| 2026-04-16 04:24 | 60.10105 | -30.73055 | 38616 ft | 498 kts | 105° |
| 2026-04-16 04:25 | 60.08289 | -30.59674 | 38614 ft | 498 kts | 106° |
| 2026-04-16 04:25 | 60.06458 | -30.46285 | 38614 ft | 499 kts | 106° |
| 2026-04-16 04:26 | 60.04610 | -30.32894 | 38606 ft | 500 kts | 106° |
| 2026-04-16 04:26 | 60.02756 | -30.19604 | 38607 ft | 499 kts | 107° |
| 2026-04-16 04:27 | 60.00882 | -30.06225 | 38608 ft | 500 kts | 106° |
| 2026-04-16 04:27 | 59.99774 | -29.92574 | 38625 ft | 501 kts | 88° |
| 2026-04-16 04:28 | 60.00581 | -29.78748 | 38611 ft | 502 kts | 81° |
| 2026-04-16 04:28 | 60.01434 | -29.64930 | 38613 ft | 501 kts | 88° |
| 2026-04-16 04:29 | 60.01682 | -29.51012 | 38606 ft | 501 kts | 86° |
| 2026-04-16 04:29 | 60.02285 | -29.37129 | 38600 ft | 501 kts | 86° |
| 2026-04-16 04:30 | 60.02595 | -29.25585 | 38597 ft | 500 kts | 87° |
| 2026-04-16 04:30 | 60.03053 | -29.11724 | 38599 ft | 499 kts | 86° |
| 2026-04-16 04:31 | 60.03475 | -28.97863 | 38597 ft | 500 kts | 87° |
| 2026-04-16 04:31 | 60.03877 | -28.83981 | 38598 ft | 499 kts | 86° |
| 2026-04-16 04:32 | 60.04282 | -28.70106 | 38597 ft | 500 kts | 87° |
| 2026-04-16 04:32 | 60.04661 | -28.56225 | 38599 ft | 500 kts | 87° |
| 2026-04-16 04:33 | 60.05026 | -28.42330 | 38601 ft | 500 kts | 87° |
| 2026-04-16 04:33 | 60.05382 | -28.28393 | 38599 ft | 502 kts | 87° |
| 2026-04-16 04:34 | 60.05717 | -28.14443 | 38602 ft | 502 kts | 87° |
| 2026-04-16 04:34 | 60.06043 | -28.00594 | 38595 ft | 502 kts | 88° |
| 2026-04-16 04:35 | 60.06350 | -27.86635 | 38597 ft | 502 kts | 88° |
| 2026-04-16 04:35 | 60.06646 | -27.72673 | 38586 ft | 501 kts | 88° |
| 2026-04-16 04:36 | 60.06926 | -27.58744 | 38585 ft | 501 kts | 88° |
| 2026-04-16 04:36 | 60.07189 | -27.44815 | 38584 ft | 501 kts | 88° |
| 2026-04-16 04:37 | 60.07441 | -27.30901 | 38583 ft | 500 kts | 88° |
| 2026-04-16 04:37 | 60.07669 | -27.16989 | 38585 ft | 501 kts | 88° |
| 2026-04-16 04:38 | 60.07899 | -27.03049 | 38574 ft | 502 kts | 88° |
| 2026-04-16 04:38 | 60.08103 | -26.89085 | 38578 ft | 501 kts | 89° |
| 2026-04-16 04:39 | 60.08293 | -26.75134 | 38579 ft | 501 kts | 88° |
| 2026-04-16 04:39 | 60.08473 | -26.61181 | 38578 ft | 501 kts | 89° |
| 2026-04-16 04:40 | 60.08637 | -26.47209 | 38576 ft | 502 kts | 89° |
| 2026-04-16 04:40 | 60.08783 | -26.33253 | 38579 ft | 502 kts | 89° |
| 2026-04-16 04:41 | 60.08920 | -26.19247 | 38582 ft | 503 kts | 89° |
| 2026-04-16 04:41 | 60.09032 | -26.05238 | 38580 ft | 503 kts | 89° |
| 2026-04-16 04:42 | 60.09143 | -25.91242 | 38579 ft | 502 kts | 89° |
| 2026-04-16 04:42 | 60.09218 | -25.77236 | 38561 ft | 503 kts | 89° |
| 2026-04-16 04:43 | 60.09298 | -25.63347 | 38563 ft | 502 kts | 90° |
| 2026-04-16 04:43 | 60.09362 | -25.49356 | 38563 ft | 501 kts | 90° |
| 2026-04-16 04:44 | 60.09403 | -25.35320 | 38561 ft | 500 kts | 90° |
| 2026-04-16 04:44 | 60.09435 | -25.21476 | 38560 ft | 500 kts | 90° |
| 2026-04-16 04:45 | 60.09448 | -25.07528 | 38563 ft | 501 kts | 90° |
| 2026-04-16 04:45 | 60.09450 | -24.93599 | 38563 ft | 500 kts | 90° |
| 2026-04-16 04:46 | 60.09436 | -24.79636 | 38566 ft | 501 kts | 91° |
| 2026-04-16 04:46 | 60.09403 | -24.65673 | 38564 ft | 501 kts | 91° |
| 2026-04-16 04:47 | 60.09365 | -24.51696 | 38563 ft | 501 kts | 91° |
| 2026-04-16 04:47 | 60.09306 | -24.37730 | 38562 ft | 502 kts | 91° |
| 2026-04-16 04:48 | 60.09232 | -24.23729 | 38568 ft | 504 kts | 91° |
| 2026-04-16 04:48 | 60.09145 | -24.09703 | 38571 ft | 503 kts | 91° |
| 2026-04-16 04:49 | 60.09042 | -23.95692 | 38571 ft | 503 kts | 91° |
| 2026-04-16 04:49 | 60.08924 | -23.81665 | 38571 ft | 504 kts | 91° |
| 2026-04-16 04:50 | 60.08790 | -23.67645 | 38571 ft | 504 kts | 92° |
| 2026-04-16 04:50 | 60.08644 | -23.53650 | 38570 ft | 502 kts | 92° |
| 2026-04-16 04:51 | 60.08482 | -23.39672 | 38548 ft | 501 kts | 92° |
| 2026-04-16 04:51 | 60.08307 | -23.25735 | 38546 ft | 500 kts | 92° |
| 2026-04-16 04:52 | 60.08115 | -23.11820 | 38547 ft | 499 kts | 92° |
| 2026-04-16 04:52 | 60.07910 | -22.97926 | 38547 ft | 498 kts | 93° |
| 2026-04-16 04:53 | 60.07693 | -22.84059 | 38546 ft | 498 kts | 93° |
| 2026-04-16 04:53 | 60.07461 | -22.70311 | 38546 ft | 497 kts | 93° |
| 2026-04-16 04:54 | 60.07211 | -22.56384 | 38548 ft | 498 kts | 93° |
| 2026-04-16 04:54 | 60.06953 | -22.42609 | 38511 ft | 498 kts | 93° |
| 2026-04-16 04:55 | 60.06669 | -22.28751 | 38507 ft | 498 kts | 94° |
| 2026-04-16 04:55 | 60.06386 | -22.14899 | 38509 ft | 499 kts | 94° |
| 2026-04-16 04:56 | 60.06079 | -22.01101 | 38511 ft | 498 kts | 94° |
| 2026-04-16 04:56 | 60.05762 | -21.87205 | 38511 ft | 498 kts | 94° |
| 2026-04-16 04:57 | 60.05421 | -21.73346 | 38514 ft | 498 kts | 94° |
| 2026-04-16 04:57 | 60.05085 | -21.59496 | 38513 ft | 498 kts | 94° |
| 2026-04-16 04:58 | 60.04705 | -21.45665 | 38517 ft | 497 kts | 94° |
| 2026-04-16 04:58 | 60.04340 | -21.31846 | 38519 ft | 497 kts | 95° |
| 2026-04-16 04:59 | 60.03941 | -21.18063 | 38529 ft | 496 kts | 95° |
| 2026-04-16 04:59 | 60.03537 | -21.04283 | 38527 ft | 496 kts | 95° |
| 2026-04-16 05:00 | 60.03123 | -20.90521 | 38527 ft | 495 kts | 95° |
| 2026-04-16 05:00 | 60.02683 | -20.76766 | 38534 ft | 496 kts | 95° |
| 2026-04-16 05:01 | 60.02238 | -20.62977 | 38535 ft | 496 kts | 95° |
| 2026-04-16 05:01 | 60.01772 | -20.49201 | 38534 ft | 497 kts | 95° |
| 2026-04-16 05:02 | 60.01297 | -20.35404 | 38534 ft | 499 kts | 96° |
| 2026-04-16 05:02 | 60.00804 | -20.21664 | 38535 ft | 500 kts | 96° |
| 2026-04-16 05:03 | 60.00299 | -20.07832 | 38533 ft | 499 kts | 96° |
| 2026-04-16 05:04 | 59.97782 | -19.87980 | 38554 ft | 495 kts | 120° |
| 2026-04-16 05:04 | 59.94315 | -19.76214 | 38546 ft | 491 kts | 123° |
| 2026-04-16 05:05 | 59.91243 | -19.64023 | 38554 ft | 494 kts | 115° |
| 2026-04-16 05:05 | 59.88378 | -19.51579 | 38549 ft | 494 kts | 119° |
| 2026-04-16 05:06 | 59.85275 | -19.39386 | 38553 ft | 494 kts | 117° |
| 2026-04-16 05:06 | 59.82309 | -19.27058 | 38553 ft | 494 kts | 118° |
| 2026-04-16 05:07 | 59.79250 | -19.14848 | 38554 ft | 494 kts | 118° |
| 2026-04-16 05:07 | 59.76222 | -19.02588 | 38550 ft | 495 kts | 118° |
| 2026-04-16 05:08 | 59.73156 | -18.90423 | 38558 ft | 492 kts | 118° |
| 2026-04-16 05:08 | 59.70101 | -18.78245 | 38557 ft | 493 kts | 118° |
| 2026-04-16 05:09 | 59.67029 | -18.66117 | 38558 ft | 493 kts | 118° |
| 2026-04-16 05:09 | 59.63948 | -18.54019 | 38558 ft | 492 kts | 118° |
| 2026-04-16 05:10 | 59.60865 | -18.41940 | 38570 ft | 492 kts | 119° |
| 2026-04-16 05:10 | 59.57764 | -18.29912 | 38572 ft | 492 kts | 118° |
| 2026-04-16 05:11 | 59.54657 | -18.17899 | 38570 ft | 491 kts | 118° |
| 2026-04-16 05:11 | 59.51538 | -18.05916 | 38572 ft | 491 kts | 119° |
| 2026-04-16 05:12 | 59.48419 | -17.93976 | 38570 ft | 490 kts | 119° |
| 2026-04-16 05:12 | 59.45303 | -17.82140 | 38571 ft | 491 kts | 119° |
| 2026-04-16 05:13 | 59.42161 | -17.70231 | 38589 ft | 491 kts | 120° |
| 2026-04-16 05:13 | 59.38999 | -17.58345 | 38587 ft | 492 kts | 120° |
| 2026-04-16 05:14 | 59.35826 | -17.46473 | 38592 ft | 492 kts | 120° |
| 2026-04-16 05:14 | 59.32650 | -17.34614 | 38594 ft | 491 kts | 120° |
| 2026-04-16 05:15 | 59.29450 | -17.22790 | 38595 ft | 492 kts | 120° |
| 2026-04-16 05:15 | 59.26249 | -17.10965 | 38597 ft | 492 kts | 120° |
| 2026-04-16 05:16 | 59.23029 | -16.99178 | 38599 ft | 492 kts | 120° |
| 2026-04-16 05:16 | 59.19800 | -16.87389 | 38600 ft | 492 kts | 120° |
| 2026-04-16 05:17 | 59.16562 | -16.75637 | 38597 ft | 491 kts | 120° |
| 2026-04-16 05:17 | 59.13317 | -16.63933 | 38598 ft | 491 kts | 121° |
| 2026-04-16 05:18 | 59.10059 | -16.52230 | 38601 ft | 492 kts | 121° |
| 2026-04-16 05:18 | 59.06787 | -16.40529 | 38606 ft | 493 kts | 121° |
| 2026-04-16 05:19 | 59.04051 | -16.30816 | 38602 ft | 493 kts | 121° |
| 2026-04-16 05:19 | 59.00756 | -16.19136 | 38603 ft | 493 kts | 121° |
| 2026-04-16 05:20 | 58.97452 | -16.07479 | 38598 ft | 492 kts | 121° |
| 2026-04-16 05:20 | 58.94126 | -15.95875 | 38602 ft | 494 kts | 121° |
| 2026-04-16 05:21 | 58.90810 | -15.84279 | 38614 ft | 492 kts | 121° |
| 2026-04-16 05:21 | 58.87469 | -15.72714 | 38617 ft | 492 kts | 122° |
| 2026-04-16 05:22 | 58.84129 | -15.61167 | 38617 ft | 492 kts | 121° |
| 2026-04-16 05:22 | 58.80768 | -15.49633 | 38619 ft | 492 kts | 122° |
| 2026-04-16 05:23 | 58.77434 | -15.38215 | 38623 ft | 492 kts | 122° |
| 2026-04-16 05:23 | 58.74053 | -15.26755 | 38624 ft | 493 kts | 122° |
| 2026-04-16 05:24 | 58.70670 | -15.15288 | 38623 ft | 492 kts | 122° |
| 2026-04-16 05:24 | 58.67274 | -15.03865 | 38624 ft | 491 kts | 122° |
| 2026-04-16 05:25 | 58.63874 | -14.92477 | 38620 ft | 492 kts | 122° |
| 2026-04-16 05:25 | 58.60465 | -14.81096 | 38637 ft | 493 kts | 122° |
| 2026-04-16 05:26 | 58.57034 | -14.69723 | 38634 ft | 493 kts | 122° |
| 2026-04-16 05:26 | 58.53592 | -14.58355 | 38641 ft | 493 kts | 122° |
| 2026-04-16 05:27 | 58.50134 | -14.47006 | 38641 ft | 494 kts | 123° |
| 2026-04-16 05:27 | 58.46674 | -14.35665 | 38644 ft | 494 kts | 123° |
| 2026-04-16 05:28 | 58.43185 | -14.24338 | 38639 ft | 495 kts | 123° |
| 2026-04-16 05:28 | 58.39692 | -14.13014 | 38639 ft | 495 kts | 123° |
| 2026-04-16 05:29 | 58.36180 | -14.01712 | 38647 ft | 495 kts | 123° |
| 2026-04-16 05:29 | 58.32666 | -13.90431 | 38669 ft | 496 kts | 123° |
| 2026-04-16 05:30 | 58.29135 | -13.79170 | 38671 ft | 496 kts | 123° |
| 2026-04-16 05:30 | 58.25599 | -13.67909 | 38668 ft | 496 kts | 123° |
| 2026-04-16 05:31 | 58.22037 | -13.56688 | 38670 ft | 496 kts | 123° |
| 2026-04-16 05:31 | 58.18486 | -13.45499 | 38667 ft | 493 kts | 123° |
| 2026-04-16 05:32 | 58.14933 | -13.34378 | 38665 ft | 494 kts | 124° |
| 2026-04-16 05:32 | 58.11371 | -13.23276 | 38667 ft | 494 kts | 124° |
| 2026-04-16 05:33 | 58.07826 | -13.12274 | 38668 ft | 493 kts | 124° |
| 2026-04-16 05:33 | 58.04249 | -13.01238 | 38668 ft | 493 kts | 124° |
| 2026-04-16 05:34 | 58.00640 | -12.90151 | 38670 ft | 492 kts | 124° |
| 2026-04-16 05:34 | 57.97075 | -12.79231 | 38667 ft | 496 kts | 124° |
| 2026-04-16 05:35 | 57.93432 | -12.68154 | 38667 ft | 497 kts | 124° |
| 2026-04-16 05:35 | 57.89790 | -12.57093 | 38671 ft | 497 kts | 124° |
| 2026-04-16 05:36 | 57.86131 | -12.46090 | 38669 ft | 496 kts | 124° |
| 2026-04-16 05:36 | 57.82479 | -12.35095 | 38674 ft | 496 kts | 124° |
| 2026-04-16 05:37 | 57.78805 | -12.24142 | 38675 ft | 496 kts | 124° |
| 2026-04-16 05:37 | 57.75142 | -12.13225 | 38675 ft | 494 kts | 124° |
| 2026-04-16 05:38 | 57.71464 | -12.02351 | 38679 ft | 496 kts | 124° |
| 2026-04-16 05:38 | 57.67783 | -11.91476 | 38689 ft | 494 kts | 125° |
| 2026-04-16 05:39 | 57.64085 | -11.80648 | 38688 ft | 494 kts | 125° |
| 2026-04-16 05:39 | 57.60385 | -11.69824 | 38688 ft | 495 kts | 126° |
| 2026-04-16 05:40 | 57.56665 | -11.59013 | 38689 ft | 495 kts | 125° |
| 2026-04-16 05:40 | 57.52936 | -11.48213 | 38690 ft | 496 kts | 126° |
| 2026-04-16 05:41 | 57.49192 | -11.37431 | 38692 ft | 496 kts | 126° |
| 2026-04-16 05:41 | 57.45439 | -11.26677 | 38691 ft | 496 kts | 126° |
| 2026-04-16 05:42 | 57.41681 | -11.15920 | 38693 ft | 497 kts | 126° |
| 2026-04-16 05:42 | 57.37903 | -11.05196 | 38690 ft | 497 kts | 126° |
| 2026-04-16 05:43 | 57.34122 | -10.94484 | 38689 ft | 497 kts | 126° |
| 2026-04-16 05:43 | 57.30355 | -10.83854 | 38689 ft | 497 kts | 126° |
| 2026-04-16 05:44 | 57.26550 | -10.73201 | 38698 ft | 496 kts | 126° |
| 2026-04-16 05:44 | 57.22741 | -10.62557 | 38683 ft | 496 kts | 126° |
| 2026-04-16 05:45 | 57.18967 | -10.52063 | 38684 ft | 496 kts | 127° |
| 2026-04-16 05:45 | 57.15144 | -10.41471 | 38686 ft | 496 kts | 126° |
| 2026-04-16 05:46 | 57.11308 | -10.30904 | 38686 ft | 497 kts | 127° |
| 2026-04-16 05:46 | 57.07466 | -10.20356 | 38683 ft | 497 kts | 127° |
| 2026-04-16 05:47 | 57.03605 | -10.09812 | 38687 ft | 498 kts | 127° |
| 2026-04-16 05:47 | 56.99845 | -9.99131 | 38710 ft | 501 kts | 118° |
| 2026-04-16 05:48 | 56.97686 | -9.86914 | 38690 ft | 507 kts | 104° |
| 2026-04-16 05:48 | 56.96292 | -9.74258 | 38687 ft | 506 kts | 107° |
| 2026-04-16 05:49 | 56.94278 | -9.61936 | 38683 ft | 505 kts | 110° |
| 2026-04-16 05:49 | 56.92409 | -9.49528 | 38685 ft | 506 kts | 112° |
| 2026-04-16 05:50 | 56.90007 | -9.37468 | 38682 ft | 503 kts | 114° |
| 2026-04-16 05:50 | 56.87569 | -9.25443 | 38682 ft | 504 kts | 112° |
| 2026-04-16 05:51 | 56.85155 | -9.13418 | 38684 ft | 505 kts | 113° |
| 2026-04-16 05:51 | 56.82695 | -9.01427 | 38683 ft | 504 kts | 113° |
| 2026-04-16 05:52 | 56.80252 | -8.89447 | 38683 ft | 504 kts | 114° |
| 2026-04-16 05:52 | 56.77779 | -8.77482 | 38685 ft | 505 kts | 114° |
| 2026-04-16 05:53 | 56.75320 | -8.65598 | 38686 ft | 504 kts | 114° |
| 2026-04-16 05:53 | 56.72828 | -8.53652 | 38686 ft | 505 kts | 114° |
| 2026-04-16 05:54 | 56.70321 | -8.41714 | 38686 ft | 505 kts | 114° |
| 2026-04-16 05:54 | 56.67806 | -8.29794 | 38684 ft | 505 kts | 114° |
| 2026-04-16 05:55 | 56.65276 | -8.17877 | 38683 ft | 505 kts | 114° |
| 2026-04-16 05:55 | 56.62732 | -8.05950 | 38690 ft | 506 kts | 115° |
| 2026-04-16 05:56 | 56.60162 | -7.94029 | 38694 ft | 507 kts | 115° |
| 2026-04-16 05:56 | 56.57600 | -7.82123 | 38692 ft | 506 kts | 115° |
| 2026-04-16 05:57 | 56.55017 | -7.70251 | 38694 ft | 507 kts | 115° |
| 2026-04-16 05:57 | 56.52419 | -7.58360 | 38693 ft | 507 kts | 115° |
| 2026-04-16 05:58 | 56.49814 | -7.46505 | 38695 ft | 507 kts | 115° |
| 2026-04-16 05:58 | 56.47199 | -7.34666 | 38695 ft | 506 kts | 115° |
| 2026-04-16 05:59 | 56.44570 | -7.22888 | 38698 ft | 504 kts | 115° |
| 2026-04-16 05:59 | 56.41945 | -7.11102 | 38698 ft | 506 kts | 116° |
| 2026-04-16 06:00 | 56.39303 | -6.99354 | 38701 ft | 505 kts | 115° |
| 2026-04-16 06:00 | 56.36666 | -6.87688 | 38703 ft | 505 kts | 115° |
| 2026-04-16 06:01 | 56.34031 | -6.76121 | 38710 ft | 505 kts | 115° |
| 2026-04-16 06:01 | 56.31366 | -6.64421 | 38710 ft | 505 kts | 115° |
| 2026-04-16 06:02 | 56.27328 | -6.46886 | 38720 ft | 506 kts | 116° |
| 2026-04-16 06:02 | 56.24619 | -6.35204 | 38722 ft | 507 kts | 116° |
| 2026-04-16 06:03 | 56.21896 | -6.23511 | 38723 ft | 507 kts | 116° |
| 2026-04-16 06:03 | 56.19158 | -6.11829 | 38741 ft | 507 kts | 116° |
| 2026-04-16 06:04 | 56.16409 | -6.00150 | 38743 ft | 508 kts | 116° |
| 2026-04-16 06:04 | 56.13649 | -5.88492 | 38757 ft | 507 kts | 116° |
| 2026-04-16 06:05 | 56.10880 | -5.76870 | 38781 ft | 506 kts | 116° |
| 2026-04-16 06:05 | 56.08105 | -5.65270 | 38763 ft | 506 kts | 117° |
| 2026-04-16 06:06 | 56.05322 | -5.53705 | 38778 ft | 506 kts | 117° |
| 2026-04-16 06:06 | 56.02528 | -5.42168 | 38780 ft | 504 kts | 117° |
| 2026-04-16 06:07 | 56.00209 | -5.32624 | 38782 ft | 503 kts | 117° |
| 2026-04-16 06:07 | 55.97402 | -5.21142 | 38784 ft | 509 kts | 117° |
| 2026-04-16 06:08 | 55.94573 | -5.09584 | 38780 ft | 508 kts | 117° |
| 2026-04-16 06:08 | 55.91702 | -4.98016 | 38798 ft | 515 kts | 117° |
| 2026-04-16 06:09 | 55.88805 | -4.86285 | 38806 ft | 517 kts | 118° |
| 2026-04-16 06:09 | 55.85877 | -4.74602 | 38807 ft | 516 kts | 118° |
| 2026-04-16 06:10 | 55.82965 | -4.62960 | 38806 ft | 515 kts | 117° |
| 2026-04-16 06:10 | 55.80031 | -4.51350 | 38806 ft | 514 kts | 118° |
| 2026-04-16 06:11 | 55.77105 | -4.39789 | 38804 ft | 513 kts | 118° |
| 2026-04-16 06:11 | 55.74165 | -4.28253 | 38804 ft | 512 kts | 118° |
| 2026-04-16 06:12 | 55.71216 | -4.16755 | 38805 ft | 512 kts | 118° |
| 2026-04-16 06:12 | 55.68262 | -4.05264 | 38807 ft | 512 kts | 118° |
| 2026-04-16 06:13 | 55.65298 | -3.93815 | 38806 ft | 512 kts | 118° |
| 2026-04-16 06:13 | 55.62338 | -3.82432 | 38810 ft | 512 kts | 118° |
| 2026-04-16 06:14 | 55.59343 | -3.70985 | 38810 ft | 513 kts | 119° |
| 2026-04-16 06:14 | 55.56338 | -3.59532 | 38814 ft | 514 kts | 119° |
| 2026-04-16 06:15 | 55.53315 | -3.48097 | 38809 ft | 514 kts | 119° |
| 2026-04-16 06:15 | 55.50258 | -3.36664 | 38815 ft | 513 kts | 124° |
| 2026-04-16 06:16 | 55.48294 | -3.31477 | 38836 ft | 507 kts | 135° |
| 2026-04-16 06:16 | 55.45913 | -3.26954 | 38817 ft | 501 kts | 141° |
| 2026-04-16 06:16 | 55.40729 | -3.18787 | 38820 ft | 500 kts | 142° |
| 2026-04-16 06:17 | 55.35856 | -3.09949 | 38826 ft | 506 kts | 136° |
| 2026-04-16 06:17 | 55.30969 | -3.01110 | 38827 ft | 503 kts | 141° |
| 2026-04-16 06:18 | 55.26014 | -2.92386 | 38831 ft | 506 kts | 138° |
| 2026-04-16 06:18 | 55.21101 | -2.83574 | 38832 ft | 506 kts | 140° |
| 2026-04-16 06:19 | 55.16141 | -2.74843 | 38834 ft | 506 kts | 139° |
| 2026-04-16 06:19 | 55.11195 | -2.66077 | 38839 ft | 506 kts | 140° |
| 2026-04-16 06:20 | 55.06252 | -2.57422 | 38840 ft | 507 kts | 139° |
| 2026-04-16 06:20 | 55.01280 | -2.48695 | 38841 ft | 507 kts | 140° |
| 2026-04-16 06:21 | 54.96291 | -2.39999 | 38839 ft | 508 kts | 140° |
| 2026-04-16 06:21 | 54.91292 | -2.31317 | 38838 ft | 508 kts | 140° |
| 2026-04-16 06:22 | 54.86282 | -2.22638 | 38848 ft | 508 kts | 140° |
| 2026-04-16 06:22 | 54.81257 | -2.13974 | 38862 ft | 510 kts | 140° |
| 2026-04-16 06:23 | 54.76227 | -2.05321 | 38865 ft | 510 kts | 140° |
| 2026-04-16 06:23 | 54.71188 | -1.96701 | 38876 ft | 510 kts | 140° |
| 2026-04-16 06:24 | 54.66137 | -1.88082 | 38885 ft | 511 kts | 140° |
| 2026-04-16 06:24 | 54.61065 | -1.79463 | 38893 ft | 512 kts | 141° |
| 2026-04-16 06:25 | 54.55986 | -1.70855 | 38900 ft | 511 kts | 141° |
| 2026-04-16 06:25 | 54.50907 | -1.62292 | 38903 ft | 512 kts | 141° |
| 2026-04-16 06:26 | 54.45819 | -1.53735 | 38913 ft | 512 kts | 141° |
| 2026-04-16 06:26 | 54.40720 | -1.45212 | 38932 ft | 512 kts | 141° |
| 2026-04-16 06:27 | 54.35622 | -1.36689 | 38930 ft | 511 kts | 141° |
| 2026-04-16 06:27 | 54.30557 | -1.28286 | 38930 ft | 510 kts | 141° |
| 2026-04-16 06:28 | 54.25457 | -1.19816 | 38939 ft | 511 kts | 141° |
| 2026-04-16 06:28 | 54.20338 | -1.11378 | 38941 ft | 511 kts | 141° |
| 2026-04-16 06:29 | 54.15220 | -1.02959 | 38939 ft | 511 kts | 141° |
| 2026-04-16 06:29 | 54.10099 | -0.94562 | 38940 ft | 511 kts | 141° |
| 2026-04-16 06:30 | 54.04959 | -0.86186 | 38951 ft | 512 kts | 141° |
| 2026-04-16 06:30 | 53.99562 | -0.78639 | 38966 ft | 503 kts | 152° |
| 2026-04-16 06:31 | 53.93679 | -0.72216 | 38977 ft | 506 kts | 151° |
| 2026-04-16 06:31 | 53.87935 | -0.65248 | 38979 ft | 507 kts | 151° |
| 2026-04-16 06:32 | 53.82101 | -0.58578 | 38976 ft | 506 kts | 152° |
| 2026-04-16 06:32 | 53.76311 | -0.51794 | 38974 ft | 507 kts | 151° |
| 2026-04-16 06:33 | 53.70482 | -0.45088 | 38979 ft | 507 kts | 152° |
| 2026-04-16 06:33 | 53.64670 | -0.38364 | 38982 ft | 507 kts | 151° |
| 2026-04-16 06:34 | 53.58849 | -0.31680 | 38983 ft | 507 kts | 148° |
| 2026-04-16 06:34 | 53.56168 | -0.27749 | 39022 ft | 517 kts | 137° |
| 2026-04-16 06:34 | 53.53871 | -0.23050 | 39015 ft | 523 kts | 130° |
| 2026-04-16 06:35 | 53.49845 | -0.12816 | 39003 ft | 526 kts | 127° |
| 2026-04-16 06:35 | 53.45494 | -0.03062 | 39012 ft | 520 kts | 135° |
| 2026-04-16 06:36 | 53.41037 | 0.06527 | 39023 ft | 520 kts | 130° |
| 2026-04-16 06:36 | 53.36780 | 0.16111 | 39020 ft | 512 kts | 132° |
| 2026-04-16 06:37 | 53.32409 | 0.25526 | 39026 ft | 513 kts | 130° |
| 2026-04-16 06:37 | 53.28142 | 0.34980 | 39034 ft | 513 kts | 131° |
| 2026-04-16 06:38 | 53.23760 | 0.44425 | 39037 ft | 515 kts | 131° |
| 2026-04-16 06:38 | 53.19417 | 0.53901 | 39037 ft | 514 kts | 131° |
| 2026-04-16 06:39 | 53.15039 | 0.63317 | 39043 ft | 514 kts | 131° |
| 2026-04-16 06:39 | 53.10662 | 0.72743 | 39066 ft | 514 kts | 131° |
| 2026-04-16 06:40 | 53.06279 | 0.82149 | 39065 ft | 514 kts | 131° |
| 2026-04-16 06:40 | 53.01889 | 0.91543 | 39066 ft | 514 kts | 131° |
| 2026-04-16 06:41 | 52.97580 | 1.01010 | 39096 ft | 516 kts | 123° |
| 2026-04-16 06:41 | 52.94761 | 1.12061 | 39096 ft | 523 kts | 109° |
| 2026-04-16 06:42 | 52.92680 | 1.23632 | 39105 ft | 524 kts | 112° |
| 2026-04-16 06:42 | 52.89993 | 1.34723 | 39100 ft | 523 kts | 115° |
| 2026-04-16 06:43 | 52.87440 | 1.46011 | 39112 ft | 524 kts | 112° |
| 2026-04-16 06:43 | 52.84853 | 1.57265 | 39111 ft | 522 kts | 114° |
| 2026-04-16 06:44 | 52.82237 | 1.68484 | 39109 ft | 524 kts | 113° |
| 2026-04-16 06:44 | 52.79643 | 1.79736 | 39107 ft | 524 kts | 114° |
| 2026-04-16 06:45 | 52.77008 | 1.90931 | 39109 ft | 523 kts | 113° |
| 2026-04-16 06:45 | 52.74386 | 2.02153 | 39108 ft | 523 kts | 114° |
| 2026-04-16 06:46 | 52.71737 | 2.13317 | 39108 ft | 522 kts | 114° |
| 2026-04-16 06:46 | 52.69097 | 2.24454 | 39107 ft | 521 kts | 114° |
| 2026-04-16 06:47 | 52.66460 | 2.35498 | 39107 ft | 521 kts | 114° |
| 2026-04-16 06:47 | 52.63795 | 2.46608 | 39112 ft | 522 kts | 114° |
| 2026-04-16 06:48 | 52.61122 | 2.57705 | 39112 ft | 521 kts | 114° |
| 2026-04-16 06:48 | 52.58432 | 2.68779 | 39114 ft | 522 kts | 114° |
| 2026-04-16 06:49 | 52.55737 | 2.79870 | 39115 ft | 522 kts | 114° |
| 2026-04-16 06:49 | 52.53519 | 2.91230 | 39140 ft | 525 kts | 105° |
| 2026-04-16 06:50 | 52.51847 | 3.02897 | 39139 ft | 525 kts | 107° |
| 2026-04-16 06:50 | 52.49955 | 3.14440 | 39134 ft | 523 kts | 106° |
| 2026-04-16 06:51 | 52.48185 | 3.26014 | 39130 ft | 523 kts | 106° |
| 2026-04-16 06:51 | 52.46333 | 3.37535 | 39127 ft | 522 kts | 107° |
| 2026-04-16 06:52 | 52.44506 | 3.49068 | 39127 ft | 523 kts | 106° |
| 2026-04-16 06:52 | 52.42646 | 3.60609 | 39131 ft | 524 kts | 107° |
| 2026-04-16 06:53 | 52.40799 | 3.72045 | 39131 ft | 512 kts | 108° |
| 2026-04-16 06:53 | 52.38952 | 3.83374 | 39128 ft | 516 kts | 108° |
| 2026-04-16 06:54 | 52.37095 | 3.94702 | 39144 ft | 516 kts | 108° |
| 2026-04-16 06:54 | 52.35240 | 4.05949 | 39145 ft | 515 kts | 108° |
| 2026-04-16 06:55 | 52.33360 | 4.17240 | 39144 ft | 514 kts | 108° |
| 2026-04-16 06:55 | 52.31472 | 4.28528 | 39141 ft | 515 kts | 108° |
| 2026-04-16 06:56 | 52.29574 | 4.39815 | 39154 ft | 515 kts | 109° |
| 2026-04-16 06:56 | 52.27662 | 4.51086 | 39161 ft | 514 kts | 109° |
| 2026-04-16 06:57 | 52.26056 | 4.60506 | 39158 ft | 514 kts | 109° |
| 2026-04-16 06:57 | 52.24135 | 4.71742 | 39161 ft | 514 kts | 109° |
| 2026-04-16 06:58 | 52.22197 | 4.82974 | 39162 ft | 514 kts | 109° |
| 2026-04-16 06:58 | 52.20254 | 4.94113 | 39157 ft | 514 kts | 109° |
| 2026-04-16 06:59 | 52.18302 | 5.05326 | 39163 ft | 515 kts | 109° |
| 2026-04-16 06:59 | 52.16325 | 5.16522 | 39166 ft | 515 kts | 109° |
| 2026-04-16 07:00 | 52.14348 | 5.27744 | 39162 ft | 514 kts | 110° |
| 2026-04-16 07:01 | 52.11354 | 5.44493 | 39174 ft | 514 kts | 110° |
| 2026-04-16 07:01 | 52.09350 | 5.55657 | 39169 ft | 514 kts | 110° |
| 2026-04-16 07:02 | 52.07336 | 5.66791 | 39183 ft | 514 kts | 110° |
| 2026-04-16 07:02 | 52.05304 | 5.77953 | 39182 ft | 515 kts | 110° |
| 2026-04-16 07:03 | 52.03263 | 5.89091 | 39183 ft | 514 kts | 110° |
| 2026-04-16 07:03 | 52.01226 | 6.00216 | 39180 ft | 514 kts | 110° |
| 2026-04-16 07:04 | 51.99156 | 6.11325 | 39181 ft | 514 kts | 110° |
| 2026-04-16 07:04 | 51.98504 | 6.14832 | 39181 ft | 514 kts | 110° |
| 2026-04-16 07:06 | 51.97187 | 6.21925 | 39179 ft | 513 kts | 112° |
| 2026-04-16 07:06 | 51.95828 | 6.27222 | 39210 ft | 507 kts | 124° |
| 2026-04-16 07:06 | 51.93873 | 6.31908 | 39210 ft | 499 kts | 136° |
| 2026-04-16 07:06 | 51.91415 | 6.35792 | 39212 ft | 491 kts | 148° |
| 2026-04-16 07:07 | 51.88589 | 6.38847 | 39195 ft | 486 kts | 155° |
| 2026-04-16 07:07 | 51.82691 | 6.44091 | 39193 ft | 484 kts | 155° |
| 2026-04-16 07:08 | 51.77069 | 6.50193 | 39180 ft | 491 kts | 144° |
| 2026-04-16 07:08 | 51.71930 | 6.57518 | 39204 ft | 493 kts | 144° |
| 2026-04-16 07:09 | 51.66552 | 6.64288 | 38795 ft | 490 kts | 148° |
| 2026-04-16 07:09 | 51.63859 | 6.67686 | 38184 ft | 493 kts | 146° |
| 2026-04-16 07:09 | 51.61220 | 6.71201 | 37595 ft | 492 kts | 145° |
| 2026-04-16 07:09 | 51.58570 | 6.74675 | 37029 ft | 490 kts | 147° |
| 2026-04-16 07:10 | 51.55894 | 6.78050 | 36453 ft | 489 kts | 147° |
| 2026-04-16 07:10 | 51.53211 | 6.81429 | 35870 ft | 491 kts | 147° |
| 2026-04-16 07:10 | 51.50548 | 6.84866 | 35310 ft | 493 kts | 147° |
| 2026-04-16 07:10 | 51.47870 | 6.88326 | 34710 ft | 494 kts | 147° |
| 2026-04-16 07:11 | 51.45173 | 6.91758 | 34131 ft | 495 kts | 147° |
| 2026-04-16 07:11 | 51.42461 | 6.95179 | 33549 ft | 496 kts | 147° |
| 2026-04-16 07:11 | 51.39825 | 6.98540 | 32939 ft | 475 kts | 147° |
| 2026-04-16 07:11 | 51.37297 | 7.01779 | 32387 ft | 454 kts | 148° |
| 2026-04-16 07:12 | 51.34866 | 7.04843 | 31865 ft | 436 kts | 148° |
| 2026-04-16 07:12 | 51.32510 | 7.07813 | 31388 ft | 431 kts | 148° |
| 2026-04-16 07:12 | 51.30146 | 7.10790 | 30871 ft | 435 kts | 148° |
| 2026-04-16 07:12 | 51.27792 | 7.13769 | 30365 ft | 440 kts | 148° |
| 2026-04-16 07:13 | 51.25259 | 7.16437 | 29723 ft | 436 kts | 158° |
| 2026-04-16 07:13 | 51.22554 | 7.18585 | 29109 ft | 431 kts | 161° |
| 2026-04-16 07:13 | 51.19821 | 7.20531 | 28496 ft | 430 kts | 161° |
| 2026-04-16 07:13 | 51.17132 | 7.22615 | 27911 ft | 430 kts | 158° |
| 2026-04-16 07:14 | 51.14479 | 7.24825 | 27308 ft | 429 kts | 158° |
| 2026-04-16 07:14 | 51.11829 | 7.26972 | 26676 ft | 421 kts | 158° |
| 2026-04-16 07:14 | 51.09304 | 7.29059 | 26119 ft | 397 kts | 159° |
| 2026-04-16 07:14 | 51.06886 | 7.30987 | 25576 ft | 384 kts | 159° |
| 2026-04-16 07:15 | 51.04470 | 7.32937 | 25077 ft | 395 kts | 158° |
| 2026-04-16 07:15 | 51.02033 | 7.34965 | 24523 ft | 396 kts | 158° |
| 2026-04-16 07:15 | 50.99595 | 7.37004 | 23967 ft | 396 kts | 158° |
| 2026-04-16 07:15 | 50.97157 | 7.39004 | 23417 ft | 394 kts | 159° |
| 2026-04-16 07:16 | 50.94718 | 7.40980 | 22861 ft | 394 kts | 158° |
| 2026-04-16 07:16 | 50.92291 | 7.42978 | 22315 ft | 393 kts | 158° |
| 2026-04-16 07:16 | 50.89863 | 7.44986 | 21764 ft | 393 kts | 158° |
| 2026-04-16 07:16 | 50.87440 | 7.46970 | 21219 ft | 391 kts | 158° |
| 2026-04-16 07:17 | 50.85019 | 7.48937 | 20677 ft | 390 kts | 158° |
| 2026-04-16 07:17 | 50.82609 | 7.50896 | 20120 ft | 389 kts | 157° |
| 2026-04-16 07:17 | 50.80211 | 7.52864 | 19584 ft | 388 kts | 157° |
| 2026-04-16 07:17 | 50.77823 | 7.54819 | 19036 ft | 386 kts | 157° |
| 2026-04-16 07:18 | 50.75440 | 7.56755 | 18507 ft | 384 kts | 157° |
| 2026-04-16 07:18 | 50.73069 | 7.58677 | 17971 ft | 382 kts | 157° |
| 2026-04-16 07:18 | 50.70708 | 7.60595 | 17459 ft | 381 kts | 157° |
| 2026-04-16 07:18 | 50.68382 | 7.62486 | 17227 ft | 369 kts | 157° |
| 2026-04-16 07:19 | 50.66168 | 7.64285 | 16595 ft | 349 kts | 157° |
| 2026-04-16 07:19 | 50.64025 | 7.66014 | 16335 ft | 344 kts | 157° |
| 2026-04-16 07:19 | 50.61908 | 7.67718 | 16021 ft | 340 kts | 157° |
| 2026-04-16 07:19 | 50.59811 | 7.69414 | 15705 ft | 338 kts | 156° |
| 2026-04-16 07:20 | 50.57723 | 7.71106 | 15379 ft | 337 kts | 157° |
| 2026-04-16 07:20 | 50.55641 | 7.72779 | 15066 ft | 335 kts | 156° |
| 2026-04-16 07:20 | 50.53570 | 7.74441 | 14743 ft | 333 kts | 156° |
| 2026-04-16 07:20 | 50.51515 | 7.76091 | 14425 ft | 331 kts | 156° |
| 2026-04-16 07:21 | 50.49494 | 7.77718 | 14115 ft | 330 kts | 156° |
| 2026-04-16 07:21 | 50.47449 | 7.79363 | 13791 ft | 330 kts | 156° |
| 2026-04-16 07:21 | 50.45412 | 7.80995 | 13489 ft | 329 kts | 156° |
| 2026-04-16 07:21 | 50.43398 | 7.82679 | 13174 ft | 330 kts | 148° |
| 2026-04-16 07:22 | 50.41565 | 7.84857 | 12866 ft | 330 kts | 144° |
| 2026-04-16 07:22 | 50.39787 | 7.87122 | 12547 ft | 327 kts | 143° |
| 2026-04-16 07:22 | 50.38027 | 7.89353 | 12240 ft | 325 kts | 144° |
| 2026-04-16 07:22 | 50.36244 | 7.91536 | 11941 ft | 324 kts | 144° |
| 2026-04-16 07:23 | 50.34475 | 7.93720 | 11632 ft | 323 kts | 144° |
| 2026-04-16 07:23 | 50.32719 | 7.95900 | 11324 ft | 321 kts | 143° |
| 2026-04-16 07:23 | 50.30972 | 7.98062 | 11017 ft | 319 kts | 144° |
| 2026-04-16 07:23 | 50.29232 | 8.00206 | 10715 ft | 318 kts | 144° |
| 2026-04-16 07:24 | 50.27503 | 8.02339 | 10413 ft | 316 kts | 144° |
| 2026-04-16 07:24 | 50.25894 | 8.04650 | 10247 ft | 314 kts | 131° |
| 2026-04-16 07:24 | 50.24540 | 8.07366 | 10240 ft | 316 kts | 128° |
| 2026-04-16 07:24 | 50.23227 | 8.10134 | 10237 ft | 318 kts | 128° |
| 2026-04-16 07:25 | 50.21891 | 8.12874 | 10242 ft | 316 kts | 130° |
| 2026-04-16 07:25 | 50.20529 | 8.15585 | 10235 ft | 317 kts | 130° |
| 2026-04-16 07:25 | 50.19180 | 8.18301 | 10238 ft | 317 kts | 129° |
| 2026-04-16 07:25 | 50.17843 | 8.21034 | 10238 ft | 317 kts | 129° |
| 2026-04-16 07:26 | 50.16494 | 8.23760 | 10236 ft | 317 kts | 129° |
| 2026-04-16 07:26 | 50.15138 | 8.26477 | 10236 ft | 317 kts | 130° |
| 2026-04-16 07:26 | 50.13786 | 8.29194 | 10239 ft | 317 kts | 130° |
| 2026-04-16 07:26 | 50.12437 | 8.31918 | 10239 ft | 317 kts | 129° |
| 2026-04-16 07:27 | 50.11095 | 8.34643 | 10240 ft | 318 kts | 129° |
| 2026-04-16 07:27 | 50.10012 | 8.37633 | 10255 ft | 321 kts | 108° |
| 2026-04-16 07:27 | 50.09792 | 8.41074 | 10262 ft | 324 kts | 83° |
| 2026-04-16 07:27 | 50.10470 | 8.44380 | 10258 ft | 324 kts | 62° |
| 2026-04-16 07:28 | 50.11621 | 8.47384 | 10249 ft | 323 kts | 57° |
| 2026-04-16 07:28 | 50.12772 | 8.50374 | 10249 ft | 323 kts | 62° |
| 2026-04-16 07:28 | 50.13669 | 8.53585 | 10251 ft | 323 kts | 71° |
| 2026-04-16 07:28 | 50.14361 | 8.56921 | 10137 ft | 324 kts | 72° |
| 2026-04-16 07:29 | 50.15071 | 8.60235 | 9866 ft | 322 kts | 69° |
| 2026-04-16 07:29 | 50.15869 | 8.63485 | 9568 ft | 319 kts | 68° |
| 2026-04-16 07:29 | 50.16665 | 8.66705 | 9224 ft | 318 kts | 69° |
| 2026-04-16 07:29 | 50.17429 | 8.69934 | 8862 ft | 318 kts | 70° |
| 2026-04-16 07:30 | 50.18187 | 8.73188 | 8491 ft | 319 kts | 70° |
| 2026-04-16 07:30 | 50.18939 | 8.76360 | 8046 ft | 302 kts | 69° |
| 2026-04-16 07:30 | 50.19648 | 8.79353 | 7675 ft | 286 kts | 70° |
| 2026-04-16 07:30 | 50.20312 | 8.82194 | 7379 ft | 280 kts | 70° |
| 2026-04-16 07:31 | 50.20981 | 8.85011 | 7094 ft | 278 kts | 69° |
| 2026-04-16 07:31 | 50.21656 | 8.87874 | 6875 ft | 281 kts | 69° |
| 2026-04-16 07:31 | 50.22323 | 8.90716 | 6661 ft | 273 kts | 69° |
| 2026-04-16 07:31 | 50.22958 | 8.93432 | 6417 ft | 268 kts | 70° |
| 2026-04-16 07:32 | 50.23582 | 8.96109 | 6171 ft | 254 kts | 69° |
| 2026-04-16 07:32 | 50.24188 | 8.98660 | 5895 ft | 250 kts | 69° |
| 2026-04-16 07:32 | 50.24777 | 9.01189 | 5853 ft | 251 kts | 70° |
| 2026-04-16 07:32 | 50.25357 | 9.03727 | 5850 ft | 253 kts | 69° |
| 2026-04-16 07:33 | 50.25838 | 9.06287 | 5836 ft | 253 kts | 85° |
| 2026-04-16 07:33 | 50.25534 | 9.08929 | 5843 ft | 249 kts | 117° |
| 2026-04-16 07:33 | 50.24473 | 9.10884 | 5826 ft | 235 kts | 147° |
| 2026-04-16 07:33 | 50.23061 | 9.12108 | 5830 ft | 231 kts | 156° |
| 2026-04-16 07:34 | 50.21625 | 9.13165 | 5659 ft | 229 kts | 158° |
| 2026-04-16 07:34 | 50.20125 | 9.14105 | 5467 ft | 227 kts | 161° |
| 2026-04-16 07:34 | 50.18619 | 9.14681 | 5216 ft | 216 kts | 183° |
| 2026-04-16 07:34 | 50.17206 | 9.14050 | 5218 ft | 211 kts | 216° |
| 2026-04-16 07:35 | 50.16249 | 9.12397 | 5108 ft | 208 kts | 240° |
| 2026-04-16 07:35 | 50.15852 | 9.10265 | 5010 ft | 204 kts | 269° |
| 2026-04-16 07:35 | 50.15676 | 9.08040 | 5002 ft | 202 kts | 255° |
| 2026-04-16 07:35 | 50.15234 | 9.05925 | 5013 ft | 201 kts | 251° |
| 2026-04-16 07:36 | 50.14761 | 9.03898 | 5015 ft | 202 kts | 250° |
| 2026-04-16 07:36 | 50.14275 | 9.01850 | 5009 ft | 202 kts | 250° |
| 2026-04-16 07:36 | 50.13794 | 8.99842 | 4996 ft | 189 kts | 250° |
| 2026-04-16 07:36 | 50.13351 | 8.97968 | 4984 ft | 179 kts | 250° |
| 2026-04-16 07:37 | 50.12919 | 8.96139 | 5004 ft | 177 kts | 250° |
| 2026-04-16 07:37 | 50.12483 | 8.94332 | 4982 ft | 179 kts | 250° |
| 2026-04-16 07:37 | 50.12065 | 8.92575 | 4755 ft | 169 kts | 250° |
| 2026-04-16 07:37 | 50.11661 | 8.90872 | 4535 ft | 167 kts | 250° |
| 2026-04-16 07:38 | 50.11261 | 8.89184 | 4330 ft | 165 kts | 250° |
| 2026-04-16 07:38 | 50.10868 | 8.87501 | 4128 ft | 164 kts | 251° |
| 2026-04-16 07:38 | 50.10477 | 8.85858 | 3919 ft | 159 kts | 250° |
| 2026-04-16 07:38 | 50.10083 | 8.84231 | 3718 ft | 160 kts | 249° |
| 2026-04-16 07:39 | 50.09708 | 8.82601 | 3513 ft | 159 kts | 250° |
| 2026-04-16 07:39 | 50.09325 | 8.80984 | 3305 ft | 159 kts | 249° |
| 2026-04-16 07:39 | 50.08940 | 8.79374 | 3098 ft | 159 kts | 250° |
| 2026-04-16 07:39 | 50.08557 | 8.77771 | 2917 ft | 157 kts | 250° |
| 2026-04-16 07:40 | 50.08183 | 8.76226 | 2707 ft | 146 kts | 249° |
| 2026-04-16 07:40 | 50.07840 | 8.74744 | 2492 ft | 145 kts | 250° |
| 2026-04-16 07:40 | 50.07492 | 8.73277 | 2306 ft | 144 kts | 247° |
| 2026-04-16 07:40 | 50.07163 | 8.71924 | 2126 ft | 145 kts | 249° |
| 2026-04-16 07:41 | 50.06824 | 8.70450 | 1926 ft | 142 kts | 251° |
| 2026-04-16 07:41 | 50.06479 | 8.69017 | 1740 ft | 142 kts | 247° |
| 2026-04-16 07:41 | 50.06248 | 8.68074 | 1625 ft | 141 kts | 249° |
| 2026-04-16 07:41 | 50.05914 | 8.66636 | 1445 ft | 140 kts | 251° |
| 2026-04-16 07:42 | 50.05570 | 8.65241 | 1260 ft | 141 kts | 245° |
| 2026-04-16 07:42 | 50.05221 | 8.63825 | 1120 ft | 140 kts | 249° |
| 2026-04-16 07:42 | 50.04905 | 8.62382 | 931 ft | 142 kts | 249° |
| 2026-04-16 07:42 | 50.04553 | 8.60971 | 741 ft | 139 kts | 248° |
| 2026-04-16 07:43 | 50.04216 | 8.59559 | 517 ft | 138 kts | 246° |
| 2026-04-16 07:43 | 50.03882 | 8.58169 | 396 ft | 137 kts | 247° |
| 2026-04-16 07:43 | 50.03585 | 8.56913 | 363 ft | 100 kts | 250° |
| 2026-04-16 07:43 | 50.03399 | 8.56129 | 363 ft | 57 kts | 251° |
| 2026-04-16 07:44 | 50.03282 | 8.55630 | 355 ft | 47 kts | 249° |
| 2026-04-16 07:44 | 50.03189 | 8.55198 | 354 ft | 38 kts | 259° |
| 2026-04-16 07:44 | 50.03191 | 8.54848 | 350 ft | 32 kts | 279° |
| 2026-04-16 07:44 | 50.03239 | 8.54551 | 351 ft | 22 kts | 306° |
| 2026-04-16 07:45 | 50.03365 | 8.54449 | 356 ft | 20 kts | 344° |
| 2026-04-16 07:45 | 50.03488 | 8.54380 | 353 ft | 18 kts | 339° |
| 2026-04-16 07:45 | 50.03593 | 8.54318 | 353 ft | 14 kts | 344° |
| 2026-04-16 07:45 | 50.03664 | 8.54363 | 352 ft | 10 kts | 52° |
| 2026-04-16 07:46 | 50.03693 | 8.54461 | 359 ft | 10 kts | 68° |
| 2026-04-16 07:46 | 50.03717 | 8.54558 | 354 ft | 9 kts | 70° |
| 2026-04-16 07:46 | 50.03737 | 8.54645 | 362 ft | 8 kts | 70° |
| 2026-04-16 07:46 | 50.03758 | 8.54735 | 361 ft | 10 kts | 70° |
| 2026-04-16 07:47 | 50.03786 | 8.54853 | 358 ft | 13 kts | 69° |
| 2026-04-16 07:47 | 50.03822 | 8.55003 | 362 ft | 16 kts | 70° |
| 2026-04-16 07:47 | 50.03864 | 8.55180 | 359 ft | 18 kts | 69° |
| 2026-04-16 07:47 | 50.03909 | 8.55364 | 363 ft | 18 kts | 69° |
| 2026-04-16 07:48 | 50.03952 | 8.55545 | 362 ft | 17 kts | 70° |
| 2026-04-16 07:48 | 50.03980 | 8.55666 | 362 ft | 11 kts | 70° |
| 2026-04-16 07:48 | 50.04006 | 8.55775 | 361 ft | 11 kts | 70° |
| 2026-04-16 07:48 | 50.04015 | 8.55813 | 367 ft | 0 kts | 69° |
| 2026-04-16 07:52 | 50.04017 | 8.55821 | 360 ft | 3 kts | 69° |
| 2026-04-16 07:52 | 50.04033 | 8.55886 | 360 ft | 10 kts | 69° |
| 2026-04-16 07:53 | 50.04066 | 8.55964 | 361 ft | 5 kts | 30° |
| 2026-04-16 07:53 | 50.04087 | 8.55970 | 362 ft | 2 kts | 1° |
| 2026-04-16 07:53 | 50.04102 | 8.55965 | 362 ft | 3 kts | 342° |
| 2026-04-16 07:53 | 50.04142 | 8.55943 | 366 ft | 8 kts | 340° |
| 2026-04-16 07:54 | 50.04152 | 8.55937 | 362 ft | 0 kts | 340° |
| 2026-04-16 07:55 | 50.04162 | 8.55932 | 362 ft | 5 kts | 340° |
| 2026-04-16 07:55 | 50.04203 | 8.55920 | 363 ft | 6 kts | 4° |
| 2026-04-16 07:55 | 50.04237 | 8.55941 | 364 ft | 6 kts | 26° |
| 2026-04-16 07:56 | 50.04292 | 8.55955 | 364 ft | 9 kts | 347° |
| 2026-04-16 07:56 | 50.04358 | 8.55920 | 366 ft | 10 kts | 340° |
| 2026-04-16 07:56 | 50.04422 | 8.55911 | 366 ft | 9 kts | 10° |
| 2026-04-16 07:56 | 50.04485 | 8.55936 | 370 ft | 10 kts | 19° |
| 2026-04-16 07:57 | 50.04551 | 8.55979 | 366 ft | 8 kts | 11° |
| 2026-04-16 07:57 | 50.04605 | 8.55967 | 366 ft | 7 kts | 340° |
| 2026-04-16 07:57 | 50.04640 | 8.55946 | 366 ft | 4 kts | 339° |
| 2026-04-16 07:57 | 50.04644 | 8.55944 | 367 ft | 0 kts | 339° |